Time,TemperatureF,DewpointF,PressureIn,WindDirection,WindDirectionDegrees,WindSpeedMPH,WindSpeedGustMPH,Humidity,HourlyPrecipIn,Conditions,Clouds,dailyrainin,SoftwareType,DateUTC
2014-01-30 00:00:00,9.0,9.0,30.33,East,84,0.0,0.0,100,0.00,RA,,0.00,WeatherDisplay:10.37,2014-01-30 05:00:00,
2014-01-30 00:01:00,9.0,9.0,30.33,East,84,0.0,0.0,100,0.00,RA,,0.00,WeatherDisplay:10.37,2014-01-30 05:01:00,
2014-01-30 00:06:00,8.8,8.8,30.33,East,84,0.0,0.0,100,0.00,RA,,0.00,WeatherDisplay:10.37,2014-01-30 05:06:00,
2014-01-30 00:07:00,8.7,8.7,30.33,East,84,0.0,0.0,100,0.00,RA,,0.00,WeatherDisplay:10.37,2014-01-30 05:07:00,
2014-01-30 00:11:00,8.5,8.5,30.33,East,84,0.0,0.0,100,0.00,CLR,,0.00,WeatherDisplay:10.37,2014-01-30 05:11:00,
2014-01-30 00:12:00,8.5,8.5,30.33,East,84,0.0,0.0,100,0.00,CLR,,0.00,WeatherDisplay:10.37,2014-01-30 05:12:00,
2014-01-30 00:13:00,8.5,8.5,30.33,East,84,0.0,0.0,100,0.00,CLR,,0.00,WeatherDisplay:10.37,2014-01-30 05:13:00,
2014-01-30 00:16:00,8.5,8.5,30.33,East,84,0.0,0.0,100,0.00,CLR,,0.00,WeatherDisplay:10.37,2014-01-30 05:16:00,
2014-01-30 00:17:00,8.4,8.4,30.33,East,84,0.0,0.0,100,0.00,CLR,,0.00,WeatherDisplay:10.37,2014-01-30 05:17:00,
2014-01-30 00:18:00,8.4,8.4,30.33,East,84,0.0,0.0,100,0.00,CLR,,0.00,WeatherDisplay:10.37,2014-01-30 05:18:00,
2014-01-30 00:21:00,8.3,8.3,30.33,East,84,0.0,0.0,100,0.00,CLR,,0.00,WeatherDisplay:10.37,2014-01-30 05:21:00,
2014-01-30 00:22:00,8.2,8.2,30.33,East,84,0.0,0.0,100,0.00,CLR,,0.00,WeatherDisplay:10.37,2014-01-30 05:22:00,
2014-01-30 00:23:00,8.2,8.2,30.33,East,84,0.0,0.0,100,0.00,CLR,,0.00,WeatherDisplay:10.37,2014-01-30 05:23:00,
2014-01-30 00:26:00,8.1,8.1,30.33,East,84,0.0,0.0,100,0.00,CLR,,0.00,WeatherDisplay:10.37,2014-01-30 05:26:00,
2014-01-30 00:27:00,8.0,8.0,30.33,East,84,0.0,0.0,100,0.00,CLR,,0.00,WeatherDisplay:10.37,2014-01-30 05:27:00,
2014-01-30 00:28:00,8.0,8.0,30.34,East,84,0.0,0.0,100,0.00,CLR,,0.00,WeatherDisplay:10.37,2014-01-30 05:28:00,
2014-01-30 00:31:00,7.9,7.9,30.33,East,84,0.0,0.0,100,0.00,CLR,,0.00,WeatherDisplay:10.37,2014-01-30 05:31:00,
2014-01-30 00:32:00,7.9,7.9,30.34,East,84,0.0,0.0,100,0.00,CLR,,0.00,WeatherDisplay:10.37,2014-01-30 05:32:00,
2014-01-30 00:33:00,7.9,7.9,30.34,East,84,0.0,0.0,100,0.00,CLR,,0.00,WeatherDisplay:10.37,2014-01-30 05:33:00,
2014-01-30 00:36:00,7.9,7.9,30.33,East,84,0.0,0.0,100,0.00,CLR,,0.00,WeatherDisplay:10.37,2014-01-30 05:36:00,
2014-01-30 00:37:00,7.8,7.8,30.33,East,84,0.0,0.0,100,0.00,CLR,,0.00,WeatherDisplay:10.37,2014-01-30 05:37:00,
2014-01-30 00:38:00,7.8,7.8,30.33,East,84,0.0,0.0,100,0.00,CLR,,0.00,WeatherDisplay:10.37,2014-01-30 05:38:00,
2014-01-30 00:41:00,7.6,7.6,30.33,East,84,0.0,0.0,100,0.00,CLR,,0.00,WeatherDisplay:10.37,2014-01-30 05:41:00,
2014-01-30 00:42:00,7.5,7.5,30.33,East,84,0.0,0.0,100,0.00,CLR,,0.00,WeatherDisplay:10.37,2014-01-30 05:42:00,
2014-01-30 00:43:00,7.5,7.5,30.33,East,84,0.0,0.0,100,0.00,CLR,,0.00,WeatherDisplay:10.37,2014-01-30 05:43:00,
2014-01-30 00:44:00,7.5,7.5,30.33,East,84,0.0,0.0,100,0.00,CLR,,0.00,WeatherDisplay:10.37,2014-01-30 05:44:00,
2014-01-30 00:46:00,7.3,7.3,30.34,East,84,0.0,0.0,100,0.00,CLR,,0.00,WeatherDisplay:10.37,2014-01-30 05:46:00,
2014-01-30 00:48:00,7.2,7.2,30.34,East,84,0.0,0.0,100,0.00,CLR,,0.00,WeatherDisplay:10.37,2014-01-30 05:48:00,
2014-01-30 00:49:00,7.1,7.1,30.33,East,84,0.0,0.0,100,0.00,CLR,,0.00,WeatherDisplay:10.37,2014-01-30 05:49:00,
2014-01-30 00:51:00,7.0,7.0,30.34,East,84,0.0,0.0,100,0.00,CLR,,0.00,WeatherDisplay:10.37,2014-01-30 05:51:00,
2014-01-30 00:53:00,7.0,7.0,30.34,East,84,0.0,0.0,100,0.00,CLR,,0.00,WeatherDisplay:10.37,2014-01-30 05:53:00,
2014-01-30 00:54:00,7.0,7.0,30.34,East,84,0.0,0.0,100,0.00,CLR,,0.00,WeatherDisplay:10.37,2014-01-30 05:54:00,
2014-01-30 00:55:00,6.9,6.9,30.33,East,84,0.0,0.0,100,0.00,CLR,,0.00,WeatherDisplay:10.37,2014-01-30 05:55:00,
2014-01-30 00:56:00,6.8,6.8,30.33,East,84,0.0,0.0,100,0.00,CLR,,0.00,WeatherDisplay:10.37,2014-01-30 05:56:00,
2014-01-30 00:58:00,6.7,6.7,30.33,East,84,0.0,0.0,100,0.00,CLR,,0.00,WeatherDisplay:10.37,2014-01-30 05:58:00,
2014-01-30 00:59:00,6.8,6.8,30.33,East,84,0.0,0.0,100,0.00,CLR,,0.00,WeatherDisplay:10.37,2014-01-30 05:59:00,
2014-01-30 01:00:00,6.6,6.6,30.33,East,84,0.0,0.0,100,0.00,CLR,,0.00,WeatherDisplay:10.37,2014-01-30 06:00:00,
2014-01-30 01:01:00,6.7,6.7,30.34,East,84,0.0,0.0,100,0.00,CLR,,0.00,WeatherDisplay:10.37,2014-01-30 06:01:00,
2014-01-30 01:02:00,6.6,6.6,30.34,East,84,0.0,0.0,100,0.00,CLR,,0.00,WeatherDisplay:10.37,2014-01-30 06:02:00,
2014-01-30 01:03:00,6.6,6.6,30.34,East,84,0.0,0.0,100,0.00,CLR,,0.00,WeatherDisplay:10.37,2014-01-30 06:03:00,
2014-01-30 01:04:00,6.6,6.6,30.34,East,84,0.0,0.0,100,0.00,CLR,,0.00,WeatherDisplay:10.37,2014-01-30 06:04:00,
2014-01-30 01:05:00,6.7,6.7,30.34,East,84,0.0,0.0,100,0.00,CLR,,0.00,WeatherDisplay:10.37,2014-01-30 06:05:00,
2014-01-30 01:06:00,6.7,6.7,30.33,East,84,0.0,0.0,100,0.00,CLR,,0.00,WeatherDisplay:10.37,2014-01-30 06:06:00,
2014-01-30 01:07:00,6.7,6.7,30.33,East,84,0.0,0.0,100,0.00,CLR,,0.00,WeatherDisplay:10.37,2014-01-30 06:07:00,
2014-01-30 01:09:00,6.6,6.6,30.33,East,84,0.0,0.0,100,0.00,CLR,,0.00,WeatherDisplay:10.37,2014-01-30 06:09:00,
2014-01-30 01:10:00,6.7,6.7,30.34,East,84,0.0,0.0,100,0.00,CLR,,0.00,WeatherDisplay:10.37,2014-01-30 06:10:00,
2014-01-30 01:12:00,6.6,6.6,30.34,East,84,0.0,0.0,100,0.00,CLR,,0.00,WeatherDisplay:10.37,2014-01-30 06:12:00,
2014-01-30 01:14:00,6.5,6.5,30.33,East,84,0.0,0.0,100,0.00,CLR,,0.00,WeatherDisplay:10.37,2014-01-30 06:14:00,
2014-01-30 01:16:00,6.5,6.5,30.33,East,84,0.0,0.0,100,0.00,CLR,,0.00,WeatherDisplay:10.37,2014-01-30 06:16:00,
2014-01-30 01:17:00,6.4,6.4,30.33,East,84,0.0,0.0,100,0.00,CLR,,0.00,WeatherDisplay:10.37,2014-01-30 06:17:00,
2014-01-30 01:19:00,6.4,6.4,30.34,East,84,0.0,0.0,100,0.00,CLR,,0.00,WeatherDisplay:10.37,2014-01-30 06:19:00,
2014-01-30 01:21:00,6.5,6.5,30.34,East,84,0.0,0.0,100,0.00,CLR,,0.00,WeatherDisplay:10.37,2014-01-30 06:21:00,
2014-01-30 01:22:00,6.4,6.4,30.34,East,84,0.0,0.0,100,0.00,CLR,,0.00,WeatherDisplay:10.37,2014-01-30 06:22:00,
2014-01-30 01:24:00,6.4,6.4,30.34,East,84,0.0,0.0,100,0.00,CLR,,0.00,WeatherDisplay:10.37,2014-01-30 06:24:00,
2014-01-30 01:26:00,6.4,6.4,30.34,East,84,0.0,0.0,100,0.00,CLR,,0.00,WeatherDisplay:10.37,2014-01-30 06:26:00,
2014-01-30 01:27:00,6.3,6.3,30.34,East,84,0.0,0.0,100,0.00,CLR,,0.00,WeatherDisplay:10.37,2014-01-30 06:27:00,
2014-01-30 01:29:00,6.3,6.3,30.34,East,84,0.0,0.0,100,0.00,CLR,,0.00,WeatherDisplay:10.37,2014-01-30 06:29:00,
2014-01-30 01:31:00,6.3,6.3,30.34,East,84,0.0,0.0,100,0.00,CLR,,0.00,WeatherDisplay:10.37,2014-01-30 06:31:00,
2014-01-30 01:32:00,6.2,6.2,30.34,East,84,0.0,0.0,100,0.00,CLR,,0.00,WeatherDisplay:10.37,2014-01-30 06:32:00,
2014-01-30 01:33:00,6.2,6.2,30.34,East,84,0.0,0.0,100,0.00,CLR,,0.00,WeatherDisplay:10.37,2014-01-30 06:33:00,
2014-01-30 01:34:00,6.2,6.2,30.34,East,84,0.0,0.0,100,0.00,CLR,,0.00,WeatherDisplay:10.37,2014-01-30 06:34:00,
2014-01-30 01:35:00,6.2,6.2,30.34,East,84,0.0,0.0,100,0.00,CLR,,0.00,WeatherDisplay:10.37,2014-01-30 06:35:00,
2014-01-30 01:36:00,6.2,6.2,30.34,East,84,0.0,0.0,100,0.00,CLR,,0.00,WeatherDisplay:10.37,2014-01-30 06:36:00,
2014-01-30 01:38:00,6.2,6.2,30.34,East,84,0.0,0.0,100,0.00,CLR,,0.00,WeatherDisplay:10.37,2014-01-30 06:38:00,
2014-01-30 01:39:00,6.2,6.2,30.34,East,84,0.0,0.0,100,0.00,CLR,,0.00,WeatherDisplay:10.37,2014-01-30 06:39:00,
2014-01-30 01:40:00,6.1,6.1,30.34,East,84,0.0,0.0,100,0.00,CLR,,0.00,WeatherDisplay:10.37,2014-01-30 06:40:00,
2014-01-30 01:42:00,6.0,6.0,30.34,East,84,0.0,0.0,100,0.00,CLR,,0.00,WeatherDisplay:10.37,2014-01-30 06:42:00,
2014-01-30 01:43:00,5.9,5.9,30.34,East,84,0.0,0.0,100,0.00,CLR,,0.00,WeatherDisplay:10.37,2014-01-30 06:43:00,
2014-01-30 01:44:00,5.9,5.9,30.34,East,84,0.0,0.0,100,0.00,CLR,,0.00,WeatherDisplay:10.37,2014-01-30 06:44:00,
2014-01-30 01:45:00,5.8,5.8,30.34,East,84,0.0,0.0,100,0.00,CLR,,0.00,WeatherDisplay:10.37,2014-01-30 06:45:00,
2014-01-30 01:48:00,5.7,5.7,30.34,East,84,0.0,0.0,100,0.00,CLR,,0.00,WeatherDisplay:10.37,2014-01-30 06:48:00,
2014-01-30 01:50:00,5.7,5.7,30.34,East,84,0.0,0.0,100,0.00,CLR,,0.00,WeatherDisplay:10.37,2014-01-30 06:50:00,
2014-01-30 01:53:00,5.5,5.5,30.34,East,84,0.0,0.0,100,0.00,CLR,,0.00,WeatherDisplay:10.37,2014-01-30 06:53:00,
2014-01-30 01:55:00,5.4,5.4,30.34,East,84,0.0,0.0,100,0.00,CLR,,0.00,WeatherDisplay:10.37,2014-01-30 06:55:00,
2014-01-30 01:56:00,5.3,5.3,30.34,East,84,0.0,0.0,100,0.00,CLR,,0.00,WeatherDisplay:10.37,2014-01-30 06:56:00,
2014-01-30 01:58:00,5.2,5.2,30.34,East,84,0.0,0.0,100,0.00,CLR,,0.00,WeatherDisplay:10.37,2014-01-30 06:58:00,
2014-01-30 01:59:00,5.2,5.2,30.34,East,84,0.0,0.0,100,0.00,CLR,,0.00,WeatherDisplay:10.37,2014-01-30 06:59:00,
2014-01-30 02:00:00,5.1,5.1,30.34,East,84,0.0,0.0,100,0.00,CLR,,0.00,WeatherDisplay:10.37,2014-01-30 07:00:00,
2014-01-30 02:02:00,5.0,5.0,30.34,East,84,0.0,0.0,100,0.00,CLR,,0.00,WeatherDisplay:10.37,2014-01-30 07:02:00,
2014-01-30 02:03:00,5.0,5.0,30.34,East,84,0.0,0.0,100,0.00,CLR,,0.00,WeatherDisplay:10.37,2014-01-30 07:03:00,
2014-01-30 02:05:00,5.0,5.0,30.34,East,84,0.0,0.0,100,0.00,CLR,,0.00,WeatherDisplay:10.37,2014-01-30 07:05:00,
2014-01-30 02:06:00,5.0,5.0,30.34,East,84,0.0,0.0,100,0.00,CLR,,0.00,WeatherDisplay:10.37,2014-01-30 07:06:00,
2014-01-30 02:07:00,5.0,5.0,30.34,East,84,0.0,0.0,100,0.00,CLR,,0.00,WeatherDisplay:10.37,2014-01-30 07:07:00,
2014-01-30 02:09:00,4.9,4.9,30.34,East,84,0.0,0.0,100,0.00,CLR,,0.00,WeatherDisplay:10.37,2014-01-30 07:09:00,
2014-01-30 02:10:00,4.9,4.9,30.34,East,84,0.0,0.0,100,0.00,CLR,,0.00,WeatherDisplay:10.37,2014-01-30 07:10:00,
2014-01-30 02:11:00,4.9,4.9,30.34,East,84,0.0,0.0,100,0.00,CLR,,0.00,WeatherDisplay:10.37,2014-01-30 07:11:00,
2014-01-30 02:12:00,4.9,4.9,30.34,East,84,0.0,0.0,100,0.00,CLR,,0.00,WeatherDisplay:10.37,2014-01-30 07:12:00,
2014-01-30 02:14:00,4.9,4.9,30.34,East,84,0.0,0.0,100,0.00,CLR,,0.00,WeatherDisplay:10.37,2014-01-30 07:14:00,
2014-01-30 02:15:00,4.8,4.8,30.34,East,84,0.0,0.0,100,0.00,CLR,,0.00,WeatherDisplay:10.37,2014-01-30 07:15:00,
2014-01-30 02:16:00,4.8,4.8,30.34,East,84,0.0,0.0,100,0.00,CLR,,0.00,WeatherDisplay:10.37,2014-01-30 07:16:00,
2014-01-30 02:17:00,4.8,4.8,30.34,East,84,0.0,0.0,100,0.00,CLR,,0.00,WeatherDisplay:10.37,2014-01-30 07:17:00,
2014-01-30 02:19:00,4.7,4.7,30.34,East,84,0.0,0.0,100,0.00,CLR,,0.00,WeatherDisplay:10.37,2014-01-30 07:19:00,
2014-01-30 02:20:00,4.7,4.7,30.34,East,84,0.0,0.0,100,0.00,CLR,,0.00,WeatherDisplay:10.37,2014-01-30 07:20:00,
2014-01-30 02:21:00,4.7,4.7,30.34,East,84,0.0,0.0,100,0.00,CLR,,0.00,WeatherDisplay:10.37,2014-01-30 07:21:00,
2014-01-30 02:22:00,4.7,4.7,30.34,East,84,0.0,0.0,100,0.00,CLR,,0.00,WeatherDisplay:10.37,2014-01-30 07:22:00,
2014-01-30 02:23:00,4.7,4.7,30.34,East,84,0.0,0.0,100,0.00,CLR,,0.00,WeatherDisplay:10.37,2014-01-30 07:23:00,
2014-01-30 02:25:00,4.6,4.6,30.34,East,84,0.0,0.0,100,0.00,CLR,,0.00,WeatherDisplay:10.37,2014-01-30 07:25:00,
2014-01-30 02:26:00,4.4,4.4,30.34,East,84,0.0,0.0,100,0.00,CLR,,0.00,WeatherDisplay:10.37,2014-01-30 07:26:00,
2014-01-30 02:27:00,4.4,4.4,30.34,East,84,0.0,0.0,100,0.00,CLR,,0.00,WeatherDisplay:10.37,2014-01-30 07:27:00,
2014-01-30 02:28:00,4.2,4.2,30.34,East,84,0.0,0.0,100,0.00,CLR,,0.00,WeatherDisplay:10.37,2014-01-30 07:28:00,
2014-01-30 02:30:00,4.2,4.2,30.34,East,84,0.0,0.0,100,0.00,CLR,,0.00,WeatherDisplay:10.37,2014-01-30 07:30:00,
2014-01-30 02:31:00,4.2,4.2,30.34,East,84,0.0,0.0,100,0.00,CLR,,0.00,WeatherDisplay:10.37,2014-01-30 07:31:00,
2014-01-30 02:32:00,4.2,4.2,30.34,East,84,0.0,0.0,100,0.00,CLR,,0.00,WeatherDisplay:10.37,2014-01-30 07:32:00,
2014-01-30 02:33:00,4.2,4.2,30.34,East,84,0.0,0.0,100,0.00,CLR,,0.00,WeatherDisplay:10.37,2014-01-30 07:33:00,
2014-01-30 02:35:00,4.2,4.2,30.34,East,84,0.0,0.0,100,0.00,CLR,,0.00,WeatherDisplay:10.37,2014-01-30 07:35:00,
2014-01-30 02:36:00,4.2,4.2,30.34,East,84,0.0,0.0,100,0.00,CLR,,0.00,WeatherDisplay:10.37,2014-01-30 07:36:00,
2014-01-30 02:37:00,4.2,4.2,30.34,East,84,0.0,0.0,100,0.00,CLR,,0.00,WeatherDisplay:10.37,2014-01-30 07:37:00,
2014-01-30 02:38:00,4.1,4.1,30.34,East,84,0.0,0.0,100,0.00,CLR,,0.00,WeatherDisplay:10.37,2014-01-30 07:38:00,
2014-01-30 02:40:00,4.0,4.0,30.34,East,84,0.0,0.0,100,0.00,CLR,,0.00,WeatherDisplay:10.37,2014-01-30 07:40:00,
2014-01-30 02:41:00,4.0,4.0,30.34,East,84,0.0,0.0,100,0.00,CLR,,0.00,WeatherDisplay:10.37,2014-01-30 07:41:00,
2014-01-30 02:42:00,4.0,4.0,30.34,East,84,0.0,0.0,100,0.00,CLR,,0.00,WeatherDisplay:10.37,2014-01-30 07:42:00,
2014-01-30 02:43:00,4.0,4.0,30.34,East,84,0.0,0.0,100,0.00,CLR,,0.00,WeatherDisplay:10.37,2014-01-30 07:43:00,
2014-01-30 02:45:00,3.8,3.8,30.34,East,84,0.0,0.0,100,0.00,CLR,,0.00,WeatherDisplay:10.37,2014-01-30 07:45:00,
2014-01-30 02:47:00,3.8,3.8,30.34,East,84,0.0,0.0,100,0.00,CLR,,0.00,WeatherDisplay:10.37,2014-01-30 07:47:00,
2014-01-30 02:48:00,3.9,3.9,30.34,East,84,0.0,0.0,100,0.00,CLR,,0.00,WeatherDisplay:10.37,2014-01-30 07:48:00,
2014-01-30 02:50:00,3.8,3.8,30.34,East,84,0.0,0.0,100,0.00,CLR,,0.00,WeatherDisplay:10.37,2014-01-30 07:50:00,
2014-01-30 02:52:00,3.7,3.7,30.34,East,84,0.0,0.0,100,0.00,CLR,,0.00,WeatherDisplay:10.37,2014-01-30 07:52:00,
2014-01-30 02:53:00,3.7,3.7,30.34,East,84,0.0,0.0,100,0.00,CLR,,0.00,WeatherDisplay:10.37,2014-01-30 07:53:00,
2014-01-30 02:54:00,3.7,3.7,30.34,East,84,0.0,0.0,100,0.00,CLR,,0.00,WeatherDisplay:10.37,2014-01-30 07:54:00,
2014-01-30 02:55:00,3.6,3.6,30.34,East,84,0.0,0.0,100,0.00,CLR,,0.00,WeatherDisplay:10.37,2014-01-30 07:55:00,
2014-01-30 02:57:00,3.6,3.6,30.34,East,84,0.0,0.0,100,0.00,CLR,,0.00,WeatherDisplay:10.37,2014-01-30 07:57:00,
2014-01-30 02:58:00,3.6,3.6,30.34,East,84,0.0,0.0,100,0.00,CLR,,0.00,WeatherDisplay:10.37,2014-01-30 07:58:00,
2014-01-30 02:59:00,3.5,3.5,30.34,East,84,0.0,0.0,100,0.00,CLR,,0.00,WeatherDisplay:10.37,2014-01-30 07:59:00,
2014-01-30 03:00:00,3.5,3.5,30.34,East,84,0.0,0.0,100,0.00,CLR,,0.00,WeatherDisplay:10.37,2014-01-30 08:00:00,
2014-01-30 03:03:00,3.4,3.4,30.34,East,84,0.0,0.0,100,0.00,FEW,,0.00,WeatherDisplay:10.37,2014-01-30 08:03:00,
2014-01-30 03:04:00,3.3,3.3,30.34,East,84,0.0,0.0,100,0.00,FEW,,0.00,WeatherDisplay:10.37,2014-01-30 08:04:00,
2014-01-30 03:05:00,3.3,3.3,30.34,East,84,0.0,0.0,100,0.00,FEW,,0.00,WeatherDisplay:10.37,2014-01-30 08:05:00,
2014-01-30 03:08:00,3.2,3.2,30.33,East,84,0.0,0.0,100,0.00,FEW,,0.00,WeatherDisplay:10.37,2014-01-30 08:08:00,
2014-01-30 03:09:00,3.2,3.2,30.33,East,84,0.0,0.0,100,0.00,FEW,,0.00,WeatherDisplay:10.37,2014-01-30 08:09:00,
2014-01-30 03:11:00,3.1,3.1,30.34,East,84,0.0,0.0,100,0.00,FEW,,0.00,WeatherDisplay:10.37,2014-01-30 08:11:00,
2014-01-30 03:13:00,3.1,3.1,30.34,East,84,0.0,0.0,100,0.00,FEW,,0.00,WeatherDisplay:10.37,2014-01-30 08:13:00,
2014-01-30 03:14:00,3.0,3.0,30.33,East,84,0.0,0.0,100,0.00,FEW,,0.00,WeatherDisplay:10.37,2014-01-30 08:14:00,
2014-01-30 03:15:00,3.0,3.0,30.33,East,84,0.0,0.0,100,0.00,FEW,,0.00,WeatherDisplay:10.37,2014-01-30 08:15:00,
2014-01-30 03:16:00,3.0,3.0,30.33,East,84,0.0,0.0,100,0.00,FEW,,0.00,WeatherDisplay:10.37,2014-01-30 08:16:00,
2014-01-30 03:18:00,2.9,2.9,30.33,East,84,0.0,0.0,100,0.00,FEW,,0.00,WeatherDisplay:10.37,2014-01-30 08:18:00,
2014-01-30 03:19:00,2.9,2.9,30.33,East,84,0.0,0.0,100,0.00,FEW,,0.00,WeatherDisplay:10.37,2014-01-30 08:19:00,
2014-01-30 03:20:00,2.9,2.9,30.33,East,84,0.0,0.0,100,0.00,FEW,,0.00,WeatherDisplay:10.37,2014-01-30 08:20:00,
2014-01-30 03:21:00,2.8,2.8,30.33,East,84,0.0,0.0,100,0.00,FEW,,0.00,WeatherDisplay:10.37,2014-01-30 08:21:00,
2014-01-30 03:22:00,2.8,2.8,30.33,East,84,0.0,0.0,100,0.00,FEW,,0.00,WeatherDisplay:10.37,2014-01-30 08:22:00,
2014-01-30 03:23:00,2.8,2.8,30.33,East,84,0.0,0.0,100,0.00,FEW,,0.00,WeatherDisplay:10.37,2014-01-30 08:23:00,
2014-01-30 03:24:00,2.7,2.7,30.33,East,84,0.0,0.0,100,0.00,FEW,,0.00,WeatherDisplay:10.37,2014-01-30 08:24:00,
2014-01-30 03:26:00,2.7,2.7,30.33,East,84,0.0,0.0,100,0.00,FEW,,0.00,WeatherDisplay:10.37,2014-01-30 08:26:00,
2014-01-30 03:27:00,2.7,2.7,30.33,East,84,0.0,0.0,100,0.00,FEW,,0.00,WeatherDisplay:10.37,2014-01-30 08:27:00,
2014-01-30 03:28:00,2.7,2.7,30.33,East,84,0.0,0.0,100,0.00,FEW,,0.00,WeatherDisplay:10.37,2014-01-30 08:28:00,
2014-01-30 03:29:00,2.7,2.7,30.33,East,84,0.0,0.0,100,0.00,FEW,,0.00,WeatherDisplay:10.37,2014-01-30 08:29:00,
2014-01-30 03:31:00,2.7,2.7,30.33,East,84,0.0,0.0,100,0.00,FEW,,0.00,WeatherDisplay:10.37,2014-01-30 08:31:00,
2014-01-30 03:32:00,2.6,2.6,30.33,East,84,0.0,0.0,100,0.00,FEW,,0.00,WeatherDisplay:10.37,2014-01-30 08:32:00,
2014-01-30 03:33:00,2.6,2.6,30.33,East,84,0.0,0.0,100,0.00,FEW,,0.00,WeatherDisplay:10.37,2014-01-30 08:33:00,
2014-01-30 03:34:00,2.6,2.6,30.33,East,84,0.0,0.0,100,0.00,FEW,,0.00,WeatherDisplay:10.37,2014-01-30 08:34:00,
2014-01-30 03:35:00,2.6,2.6,30.33,East,84,0.0,0.0,100,0.00,FEW,,0.00,WeatherDisplay:10.37,2014-01-30 08:35:00,
2014-01-30 03:36:00,2.6,2.6,30.33,East,84,0.0,0.0,100,0.00,FEW,,0.00,WeatherDisplay:10.37,2014-01-30 08:36:00,
2014-01-30 03:37:00,2.6,2.6,30.33,East,84,0.0,0.0,100,0.00,FEW,,0.00,WeatherDisplay:10.37,2014-01-30 08:37:00,
2014-01-30 03:38:00,2.6,2.6,30.33,East,84,0.0,0.0,100,0.00,FEW,,0.00,WeatherDisplay:10.37,2014-01-30 08:38:00,
2014-01-30 03:39:00,2.5,2.5,30.33,East,84,0.0,0.0,100,0.00,FEW,,0.00,WeatherDisplay:10.37,2014-01-30 08:39:00,
2014-01-30 03:40:00,2.5,2.5,30.33,East,84,0.0,0.0,100,0.00,FEW,,0.00,WeatherDisplay:10.37,2014-01-30 08:40:00,
2014-01-30 03:41:00,2.4,2.4,30.33,East,84,0.0,0.0,100,0.00,FEW,,0.00,WeatherDisplay:10.37,2014-01-30 08:41:00,
2014-01-30 03:42:00,2.4,2.4,30.33,East,84,0.0,0.0,100,0.00,FEW,,0.00,WeatherDisplay:10.37,2014-01-30 08:42:00,
2014-01-30 03:43:00,2.4,2.4,30.33,East,84,0.0,0.0,100,0.00,FEW,,0.00,WeatherDisplay:10.37,2014-01-30 08:43:00,
2014-01-30 03:44:00,2.3,2.3,30.33,East,84,0.0,0.0,100,0.00,FEW,,0.00,WeatherDisplay:10.37,2014-01-30 08:44:00,
2014-01-30 03:45:00,2.3,2.3,30.33,East,84,0.0,0.0,100,0.00,FEW,,0.00,WeatherDisplay:10.37,2014-01-30 08:45:00,
2014-01-30 03:46:00,2.2,2.2,30.33,East,84,0.0,0.0,100,0.00,FEW,,0.00,WeatherDisplay:10.37,2014-01-30 08:46:00,
2014-01-30 03:47:00,2.1,2.1,30.33,East,84,0.0,0.0,100,0.00,FEW,,0.00,WeatherDisplay:10.37,2014-01-30 08:47:00,
2014-01-30 03:48:00,2.1,2.1,30.33,East,84,0.0,0.0,100,0.00,FEW,,0.00,WeatherDisplay:10.37,2014-01-30 08:48:00,
2014-01-30 03:49:00,2.0,2.0,30.33,East,84,0.0,0.0,100,0.00,FEW,,0.00,WeatherDisplay:10.37,2014-01-30 08:49:00,
2014-01-30 03:50:00,2.0,2.0,30.33,East,84,0.0,0.0,100,0.00,FEW,,0.00,WeatherDisplay:10.37,2014-01-30 08:50:00,
2014-01-30 03:51:00,2.0,2.0,30.33,East,84,0.0,0.0,100,0.00,FEW,,0.00,WeatherDisplay:10.37,2014-01-30 08:51:00,
2014-01-30 03:52:00,2.0,2.0,30.33,East,84,0.0,0.0,100,0.00,FEW,,0.00,WeatherDisplay:10.37,2014-01-30 08:52:00,
2014-01-30 03:54:00,2.1,2.1,30.33,East,84,0.0,0.0,100,0.00,FEW,,0.00,WeatherDisplay:10.37,2014-01-30 08:54:00,
2014-01-30 03:55:00,2.1,2.1,30.33,East,84,0.0,0.0,100,0.00,FEW,,0.00,WeatherDisplay:10.37,2014-01-30 08:55:00,
2014-01-30 03:57:00,2.1,2.1,30.33,East,84,0.0,0.0,100,0.00,FEW,,0.00,WeatherDisplay:10.37,2014-01-30 08:57:00,
2014-01-30 03:58:00,2.1,2.1,30.33,East,84,0.0,0.0,100,0.00,FEW,,0.00,WeatherDisplay:10.37,2014-01-30 08:58:00,
2014-01-30 04:00:00,2.1,2.1,30.33,East,84,0.0,0.0,100,0.00,FEW,,0.00,WeatherDisplay:10.37,2014-01-30 09:00:00,
2014-01-30 04:02:00,2.2,2.2,30.33,East,84,0.0,0.0,100,0.00,FEW,,0.00,WeatherDisplay:10.37,2014-01-30 09:02:00,
2014-01-30 04:03:00,2.1,2.1,30.33,East,84,0.0,0.0,100,0.00,FEW,,0.00,WeatherDisplay:10.37,2014-01-30 09:03:00,
2014-01-30 04:05:00,2.1,2.1,30.33,East,84,0.0,0.0,100,0.00,FEW,,0.00,WeatherDisplay:10.37,2014-01-30 09:05:00,
2014-01-30 04:07:00,1.9,1.9,30.33,East,84,0.0,0.0,100,0.00,FEW,,0.00,WeatherDisplay:10.37,2014-01-30 09:07:00,
2014-01-30 04:08:00,1.9,1.9,30.33,East,84,0.0,0.0,100,0.00,FEW,,0.00,WeatherDisplay:10.37,2014-01-30 09:08:00,
2014-01-30 04:10:00,1.9,1.9,30.32,East,84,0.0,0.0,100,0.00,FEW,,0.00,WeatherDisplay:10.37,2014-01-30 09:10:00,
2014-01-30 04:11:00,1.9,1.9,30.32,East,84,0.0,0.0,100,0.00,FEW,,0.00,WeatherDisplay:10.37,2014-01-30 09:11:00,
2014-01-30 04:12:00,1.8,1.8,30.32,East,84,0.0,0.0,100,0.00,FEW,,0.00,WeatherDisplay:10.37,2014-01-30 09:12:00,
2014-01-30 04:13:00,1.8,1.8,30.32,East,84,0.0,0.0,100,0.00,FEW,,0.00,WeatherDisplay:10.37,2014-01-30 09:13:00,
2014-01-30 04:15:00,1.7,1.7,30.32,East,84,0.0,0.0,100,0.00,FEW,,0.00,WeatherDisplay:10.37,2014-01-30 09:15:00,
2014-01-30 04:16:00,1.7,1.7,30.32,East,84,0.0,0.0,100,0.00,FEW,,0.00,WeatherDisplay:10.37,2014-01-30 09:16:00,
2014-01-30 04:17:00,1.7,1.7,30.32,East,84,0.0,0.0,100,0.00,FEW,,0.00,WeatherDisplay:10.37,2014-01-30 09:17:00,
2014-01-30 04:18:00,1.7,1.7,30.32,East,84,0.0,0.0,100,0.00,FEW,,0.00,WeatherDisplay:10.37,2014-01-30 09:18:00,
2014-01-30 04:20:00,1.6,1.6,30.32,East,84,0.0,0.0,100,0.00,FEW,,0.00,WeatherDisplay:10.37,2014-01-30 09:20:00,
2014-01-30 04:21:00,1.6,1.6,30.32,East,84,0.0,0.0,100,0.00,FEW,,0.00,WeatherDisplay:10.37,2014-01-30 09:21:00,
2014-01-30 04:22:00,1.6,1.6,30.32,East,84,0.0,0.0,100,0.00,FEW,,0.00,WeatherDisplay:10.37,2014-01-30 09:22:00,
2014-01-30 04:23:00,1.6,1.6,30.32,East,84,0.0,0.0,100,0.00,FEW,,0.00,WeatherDisplay:10.37,2014-01-30 09:23:00,
2014-01-30 04:24:00,1.6,1.6,30.32,East,84,0.0,0.0,100,0.00,FEW,,0.00,WeatherDisplay:10.37,2014-01-30 09:24:00,
2014-01-30 04:26:00,1.5,1.5,30.32,East,84,0.0,0.0,100,0.00,FEW,,0.00,WeatherDisplay:10.37,2014-01-30 09:26:00,
2014-01-30 04:27:00,1.6,1.6,30.32,East,84,0.0,0.0,100,0.00,FEW,,0.00,WeatherDisplay:10.37,2014-01-30 09:27:00,
2014-01-30 04:28:00,1.6,1.6,30.32,East,84,0.0,0.0,100,0.00,FEW,,0.00,WeatherDisplay:10.37,2014-01-30 09:28:00,
2014-01-30 04:29:00,1.6,1.6,30.32,East,84,0.0,0.0,100,0.00,FEW,,0.00,WeatherDisplay:10.37,2014-01-30 09:29:00,
2014-01-30 04:31:00,1.5,1.5,30.32,East,84,0.0,0.0,100,0.00,FEW,,0.00,WeatherDisplay:10.37,2014-01-30 09:31:00,
2014-01-30 04:32:00,1.5,1.5,30.32,East,84,0.0,0.0,100,0.00,FEW,,0.00,WeatherDisplay:10.37,2014-01-30 09:32:00,
2014-01-30 04:33:00,1.5,1.5,30.32,East,84,0.0,0.0,100,0.00,FEW,,0.00,WeatherDisplay:10.37,2014-01-30 09:33:00,
2014-01-30 04:35:00,1.4,1.4,30.32,East,84,0.0,0.0,100,0.00,FEW,,0.00,WeatherDisplay:10.37,2014-01-30 09:35:00,
2014-01-30 04:36:00,1.3,1.3,30.32,East,84,0.0,0.0,100,0.00,FEW,,0.00,WeatherDisplay:10.37,2014-01-30 09:36:00,
2014-01-30 04:37:00,1.3,1.3,30.32,East,84,0.0,0.0,100,0.00,FEW,,0.00,WeatherDisplay:10.37,2014-01-30 09:37:00,
2014-01-30 04:38:00,1.3,1.3,30.32,East,84,0.0,0.0,100,0.00,FEW,,0.00,WeatherDisplay:10.37,2014-01-30 09:38:00,
2014-01-30 04:39:00,1.2,1.2,30.32,East,84,0.0,0.0,100,0.00,FEW,,0.00,WeatherDisplay:10.37,2014-01-30 09:39:00,
2014-01-30 04:40:00,1.2,1.2,30.32,East,84,0.0,0.0,100,0.00,FEW,,0.00,WeatherDisplay:10.37,2014-01-30 09:40:00,
2014-01-30 04:41:00,1.2,1.2,30.32,East,84,0.0,0.0,100,0.00,FEW,,0.00,WeatherDisplay:10.37,2014-01-30 09:41:00,
2014-01-30 04:43:00,1.1,1.1,30.33,East,84,0.0,0.0,100,0.00,FEW,,0.00,WeatherDisplay:10.37,2014-01-30 09:43:00,
2014-01-30 04:44:00,1.1,1.1,30.33,East,84,0.0,0.0,100,0.00,FEW,,0.00,WeatherDisplay:10.37,2014-01-30 09:44:00,
2014-01-30 04:46:00,1.0,1.0,30.33,East,84,0.0,0.0,100,0.00,FEW,,0.00,WeatherDisplay:10.37,2014-01-30 09:46:00,
2014-01-30 04:48:00,1.0,1.0,30.33,East,84,0.0,0.0,100,0.00,FEW,,0.00,WeatherDisplay:10.37,2014-01-30 09:48:00,
2014-01-30 04:49:00,1.0,1.0,30.33,East,84,0.0,0.0,100,0.00,FEW,,0.00,WeatherDisplay:10.37,2014-01-30 09:49:00,
2014-01-30 04:51:00,0.9,0.9,30.33,East,84,0.0,0.0,100,0.00,FEW,,0.00,WeatherDisplay:10.37,2014-01-30 09:51:00,
2014-01-30 04:53:00,0.9,0.9,30.33,East,84,0.0,0.0,100,0.00,FEW,,0.00,WeatherDisplay:10.37,2014-01-30 09:53:00,
2014-01-30 04:54:00,0.9,0.9,30.33,East,84,0.0,0.0,100,0.00,FEW,,0.00,WeatherDisplay:10.37,2014-01-30 09:54:00,
2014-01-30 04:56:00,0.8,0.8,30.33,East,84,0.0,0.0,100,0.00,FEW,,0.00,WeatherDisplay:10.37,2014-01-30 09:56:00,
2014-01-30 04:57:00,0.8,0.8,30.33,East,84,0.0,0.0,100,0.00,FEW,,0.00,WeatherDisplay:10.37,2014-01-30 09:57:00,
2014-01-30 04:58:00,0.8,0.8,30.33,East,84,0.0,0.0,100,0.00,FEW,,0.00,WeatherDisplay:10.37,2014-01-30 09:58:00,
2014-01-30 04:59:00,0.7,0.7,30.33,East,84,0.0,0.0,100,0.00,FEW,,0.00,WeatherDisplay:10.37,2014-01-30 09:59:00,
2014-01-30 05:01:00,0.6,0.6,30.33,East,84,0.0,0.0,100,0.00,CLR,,0.00,WeatherDisplay:10.37,2014-01-30 10:01:00,
2014-01-30 05:02:00,0.6,0.6,30.33,East,84,0.0,0.0,100,0.00,CLR,,0.00,WeatherDisplay:10.37,2014-01-30 10:02:00,
2014-01-30 05:04:00,0.6,0.6,30.33,East,84,0.0,0.0,100,0.00,CLR,,0.00,WeatherDisplay:10.37,2014-01-30 10:04:00,
2014-01-30 05:05:00,0.6,0.6,30.33,East,84,0.0,0.0,100,0.00,CLR,,0.00,WeatherDisplay:10.37,2014-01-30 10:05:00,
2014-01-30 05:06:00,0.6,0.6,30.33,East,84,0.0,0.0,100,0.00,CLR,,0.00,WeatherDisplay:10.37,2014-01-30 10:06:00,
2014-01-30 05:08:00,0.5,0.5,30.33,East,84,0.0,0.0,100,0.00,CLR,,0.00,WeatherDisplay:10.37,2014-01-30 10:08:00,
2014-01-30 05:09:00,0.5,0.5,30.33,East,84,0.0,0.0,100,0.00,CLR,,0.00,WeatherDisplay:10.37,2014-01-30 10:09:00,
2014-01-30 05:10:00,0.5,0.5,30.33,East,84,0.0,0.0,100,0.00,CLR,,0.00,WeatherDisplay:10.37,2014-01-30 10:10:00,
2014-01-30 05:12:00,0.5,0.5,30.33,East,84,0.0,0.0,100,0.00,CLR,,0.00,WeatherDisplay:10.37,2014-01-30 10:12:00,
2014-01-30 05:13:00,0.4,0.4,30.33,East,84,0.0,0.0,100,0.00,CLR,,0.00,WeatherDisplay:10.37,2014-01-30 10:13:00,
2014-01-30 05:14:00,0.4,0.4,30.33,East,84,0.0,0.0,100,0.00,CLR,,0.00,WeatherDisplay:10.37,2014-01-30 10:14:00,
2014-01-30 05:15:00,0.4,0.4,30.33,East,84,0.0,0.0,100,0.00,CLR,,0.00,WeatherDisplay:10.37,2014-01-30 10:15:00,
2014-01-30 05:17:00,0.4,0.4,30.33,East,84,0.0,0.0,100,0.00,CLR,,0.00,WeatherDisplay:10.37,2014-01-30 10:17:00,
2014-01-30 05:18:00,0.3,0.3,30.32,East,84,0.0,0.0,100,0.00,CLR,,0.00,WeatherDisplay:10.37,2014-01-30 10:18:00,
2014-01-30 05:19:00,0.2,0.2,30.32,East,84,0.0,0.0,100,0.00,CLR,,0.00,WeatherDisplay:10.37,2014-01-30 10:19:00,
2014-01-30 05:20:00,0.2,0.2,30.32,East,84,0.0,0.0,100,0.00,CLR,,0.00,WeatherDisplay:10.37,2014-01-30 10:20:00,
2014-01-30 05:22:00,0.2,0.2,30.32,East,84,0.0,0.0,100,0.00,CLR,,0.00,WeatherDisplay:10.37,2014-01-30 10:22:00,
2014-01-30 05:23:00,0.2,0.2,30.32,East,84,0.0,0.0,100,0.00,CLR,,0.00,WeatherDisplay:10.37,2014-01-30 10:23:00,
2014-01-30 05:25:00,0.1,0.1,30.32,East,84,0.0,0.0,100,0.00,CLR,,0.00,WeatherDisplay:10.37,2014-01-30 10:25:00,
2014-01-30 05:27:00,0.1,0.1,30.32,East,84,0.0,0.0,100,0.00,CLR,,0.00,WeatherDisplay:10.37,2014-01-30 10:27:00,
2014-01-30 05:28:00,0.1,0.1,30.32,East,84,0.0,0.0,100,0.00,CLR,,0.00,WeatherDisplay:10.37,2014-01-30 10:28:00,
2014-01-30 05:30:00,0.2,0.2,30.32,East,84,0.0,0.0,100,0.00,CLR,,0.00,WeatherDisplay:10.37,2014-01-30 10:30:00,
2014-01-30 05:31:00,0.2,0.2,30.32,East,84,0.0,0.0,100,0.00,CLR,,0.00,WeatherDisplay:10.37,2014-01-30 10:31:00,
2014-01-30 05:33:00,0.2,0.2,30.32,East,84,0.0,0.0,100,0.00,CLR,,0.00,WeatherDisplay:10.37,2014-01-30 10:33:00,
2014-01-30 05:34:00,0.1,0.1,30.32,East,84,0.0,0.0,100,0.00,CLR,,0.00,WeatherDisplay:10.37,2014-01-30 10:34:00,
2014-01-30 05:35:00,0.1,0.1,30.32,East,84,0.0,0.0,100,0.00,CLR,,0.00,WeatherDisplay:10.37,2014-01-30 10:35:00,
2014-01-30 05:36:00,0.0,0.0,30.32,East,84,0.0,0.0,100,0.00,CLR,,0.00,WeatherDisplay:10.37,2014-01-30 10:36:00,
2014-01-30 05:39:00,0.2,0.2,30.32,East,84,0.0,0.0,100,0.00,CLR,,0.00,WeatherDisplay:10.37,2014-01-30 10:39:00,
2014-01-30 05:40:00,0.2,0.2,30.32,East,84,0.0,0.0,100,0.00,CLR,,0.00,WeatherDisplay:10.37,2014-01-30 10:40:00,
2014-01-30 05:41:00,0.2,0.2,30.32,East,84,0.0,0.0,100,0.00,CLR,,0.00,WeatherDisplay:10.37,2014-01-30 10:41:00,
2014-01-30 05:44:00,0.2,0.2,30.32,East,84,0.0,0.0,100,0.00,CLR,,0.00,WeatherDisplay:10.37,2014-01-30 10:44:00,
2014-01-30 05:45:00,0.2,0.2,30.32,East,84,0.0,0.0,100,0.00,CLR,,0.00,WeatherDisplay:10.37,2014-01-30 10:45:00,
2014-01-30 05:46:00,0.2,0.2,30.32,East,84,0.0,0.0,100,0.00,CLR,,0.00,WeatherDisplay:10.37,2014-01-30 10:46:00,
2014-01-30 05:47:00,0.2,0.2,30.32,East,84,0.0,0.0,100,0.00,CLR,,0.00,WeatherDisplay:10.37,2014-01-30 10:47:00,
2014-01-30 05:50:00,0.1,0.1,30.32,East,84,0.0,0.0,100,0.00,CLR,,0.00,WeatherDisplay:10.37,2014-01-30 10:50:00,
2014-01-30 05:51:00,0.1,0.1,30.32,East,84,0.0,0.0,100,0.00,CLR,,0.00,WeatherDisplay:10.37,2014-01-30 10:51:00,
2014-01-30 05:52:00,0.1,0.1,30.32,East,84,0.0,0.0,100,0.00,CLR,,0.00,WeatherDisplay:10.37,2014-01-30 10:52:00,
2014-01-30 05:55:00,0.0,0.0,30.32,East,84,0.0,0.0,100,0.00,CLR,,0.00,WeatherDisplay:10.37,2014-01-30 10:55:00,
2014-01-30 05:56:00,0.0,0.0,30.32,East,84,0.0,0.0,100,0.00,CLR,,0.00,WeatherDisplay:10.37,2014-01-30 10:56:00,
2014-01-30 05:57:00,0.0,0.0,30.32,East,84,0.0,0.0,100,0.00,CLR,,0.00,WeatherDisplay:10.37,2014-01-30 10:57:00,
2014-01-30 06:00:00,0.0,0.0,30.33,East,84,0.0,0.0,100,0.00,CLR,,0.00,WeatherDisplay:10.37,2014-01-30 11:00:00,
2014-01-30 06:01:00,-0.1,-0.1,30.32,East,84,0.0,0.0,100,0.00,FEW,,0.00,WeatherDisplay:10.37,2014-01-30 11:01:00,
2014-01-30 06:02:00,-0.1,-0.1,30.33,East,84,0.0,0.0,100,0.00,FEW,,0.00,WeatherDisplay:10.37,2014-01-30 11:02:00,
2014-01-30 06:05:00,-0.2,-0.2,30.33,East,84,0.0,0.0,100,0.00,FEW,,0.00,WeatherDisplay:10.37,2014-01-30 11:05:00,
2014-01-30 06:06:00,-0.2,-0.2,30.33,East,84,0.0,0.0,100,0.00,FEW,,0.00,WeatherDisplay:10.37,2014-01-30 11:06:00,
2014-01-30 06:07:00,-0.2,-0.2,30.33,East,84,0.0,0.0,100,0.00,FEW,,0.00,WeatherDisplay:10.37,2014-01-30 11:07:00,
2014-01-30 06:10:00,-0.4,-0.4,30.33,East,84,0.0,0.0,100,0.00,FEW,,0.00,WeatherDisplay:10.37,2014-01-30 11:10:00,
2014-01-30 06:11:00,-0.4,-0.4,30.33,East,84,0.0,0.0,100,0.00,FEW,,0.00,WeatherDisplay:10.37,2014-01-30 11:11:00,
2014-01-30 06:12:00,-0.4,-0.4,30.33,East,84,0.0,0.0,100,0.00,FEW,,0.00,WeatherDisplay:10.37,2014-01-30 11:12:00,
2014-01-30 06:13:00,-0.4,-0.4,30.33,East,84,0.0,0.0,100,0.00,FEW,,0.00,WeatherDisplay:10.37,2014-01-30 11:13:00,
2014-01-30 06:15:00,-0.4,-0.4,30.33,East,84,0.0,0.0,100,0.00,FEW,,0.00,WeatherDisplay:10.37,2014-01-30 11:15:00,
2014-01-30 06:16:00,-0.4,-0.4,30.33,East,84,0.0,0.0,100,0.00,FEW,,0.00,WeatherDisplay:10.37,2014-01-30 11:16:00,
2014-01-30 06:17:00,-0.4,-0.4,30.33,East,84,0.0,0.0,100,0.00,FEW,,0.00,WeatherDisplay:10.37,2014-01-30 11:17:00,
2014-01-30 06:18:00,-0.5,-0.5,30.33,East,84,0.0,0.0,100,0.00,FEW,,0.00,WeatherDisplay:10.37,2014-01-30 11:18:00,
2014-01-30 06:21:00,-0.6,-0.6,30.33,East,84,0.0,0.0,100,0.00,FEW,,0.00,WeatherDisplay:10.37,2014-01-30 11:21:00,
2014-01-30 06:22:00,-0.5,-0.5,30.33,East,84,0.0,0.0,100,0.00,FEW,,0.00,WeatherDisplay:10.37,2014-01-30 11:22:00,
2014-01-30 06:24:00,-0.6,-0.6,30.33,East,84,0.0,0.0,100,0.00,FEW,,0.00,WeatherDisplay:10.37,2014-01-30 11:24:00,
2014-01-30 06:26:00,-0.6,-0.6,30.32,East,84,0.0,0.0,100,0.00,FEW,,0.00,WeatherDisplay:10.37,2014-01-30 11:26:00,
2014-01-30 06:27:00,-0.6,-0.6,30.32,East,84,0.0,0.0,100,0.00,FEW,,0.00,WeatherDisplay:10.37,2014-01-30 11:27:00,
2014-01-30 06:30:00,-0.7,-0.7,30.32,East,84,0.0,0.0,100,0.00,FEW,,0.00,WeatherDisplay:10.37,2014-01-30 11:30:00,
2014-01-30 06:32:00,-0.7,-0.7,30.33,East,84,0.0,0.0,100,0.00,FEW,,0.00,WeatherDisplay:10.37,2014-01-30 11:32:00,
2014-01-30 06:33:00,-0.7,-0.7,30.33,East,84,0.0,0.0,100,0.00,FEW,,0.00,WeatherDisplay:10.37,2014-01-30 11:33:00,
2014-01-30 06:34:00,-0.7,-0.7,30.33,East,84,0.0,0.0,100,0.00,FEW,,0.00,WeatherDisplay:10.37,2014-01-30 11:34:00,
2014-01-30 06:35:00,-0.7,-0.7,30.33,East,84,0.0,0.0,100,0.00,FEW,,0.00,WeatherDisplay:10.37,2014-01-30 11:35:00,
2014-01-30 06:37:00,-0.7,-0.7,30.33,East,84,0.0,0.0,100,0.00,FEW,,0.00,WeatherDisplay:10.37,2014-01-30 11:37:00,
2014-01-30 06:38:00,-0.7,-0.7,30.33,East,84,0.0,0.0,100,0.00,FEW,,0.00,WeatherDisplay:10.37,2014-01-30 11:38:00,
2014-01-30 06:39:00,-0.7,-0.7,30.33,East,84,0.0,0.0,100,0.00,FEW,,0.00,WeatherDisplay:10.37,2014-01-30 11:39:00,
2014-01-30 06:41:00,-0.7,-0.7,30.33,East,84,0.0,2.3,100,0.00,FEW,,0.00,WeatherDisplay:10.37,2014-01-30 11:41:00,
2014-01-30 06:42:00,-0.8,-0.8,30.33,East,84,0.3,2.3,100,0.00,FEW,,0.00,WeatherDisplay:10.37,2014-01-30 11:42:00,
2014-01-30 06:43:00,-0.8,-0.8,30.33,East,84,0.2,1.1,100,0.00,FEW,,0.00,WeatherDisplay:10.37,2014-01-30 11:43:00,
2014-01-30 06:45:00,-0.8,-0.8,30.33,East,84,0.0,0.0,100,0.00,FEW,,0.00,WeatherDisplay:10.37,2014-01-30 11:45:00,
2014-01-30 06:46:00,-0.8,-0.8,30.33,East,84,0.0,0.0,100,0.00,FEW,,0.00,WeatherDisplay:10.37,2014-01-30 11:46:00,
2014-01-30 06:47:00,-0.9,-0.9,30.33,East,84,0.0,0.0,100,0.00,FEW,,0.00,WeatherDisplay:10.37,2014-01-30 11:47:00,
2014-01-30 06:48:00,-0.9,-0.9,30.34,East,84,0.0,0.0,100,0.00,FEW,,0.00,WeatherDisplay:10.37,2014-01-30 11:48:00,
2014-01-30 06:49:00,-0.9,-0.9,30.33,East,84,0.0,0.0,100,0.00,FEW,,0.00,WeatherDisplay:10.37,2014-01-30 11:49:00,
2014-01-30 06:50:00,-0.9,-0.9,30.33,East,84,0.0,0.0,100,0.00,FEW,,0.00,WeatherDisplay:10.37,2014-01-30 11:50:00,
2014-01-30 06:52:00,-1.0,-1.0,30.33,East,84,0.0,1.1,100,0.00,FEW,,0.00,WeatherDisplay:10.37,2014-01-30 11:52:00,
2014-01-30 06:53:00,-1.0,-1.0,30.33,East,84,0.0,0.0,100,0.00,FEW,,0.00,WeatherDisplay:10.37,2014-01-30 11:53:00,
2014-01-30 06:54:00,-1.1,-1.1,30.33,East,84,0.0,0.0,100,0.00,FEW,,0.00,WeatherDisplay:10.37,2014-01-30 11:54:00,
2014-01-30 06:56:00,-1.0,-1.0,30.33,East,84,0.0,0.0,100,0.00,FEW,,0.00,WeatherDisplay:10.37,2014-01-30 11:56:00,
2014-01-30 06:57:00,-1.1,-1.1,30.33,East,84,0.0,0.0,100,0.00,FEW,,0.00,WeatherDisplay:10.37,2014-01-30 11:57:00,
2014-01-30 06:58:00,-1.0,-1.0,30.33,East,84,0.0,0.0,100,0.00,FEW,,0.00,WeatherDisplay:10.37,2014-01-30 11:58:00,
2014-01-30 06:59:00,-1.1,-1.1,30.33,East,84,0.0,0.0,100,0.00,FEW,,0.00,WeatherDisplay:10.37,2014-01-30 11:59:00,
2014-01-30 07:01:00,-1.0,-1.0,30.33,East,84,0.0,0.0,100,0.00,FEW,,0.00,WeatherDisplay:10.37,2014-01-30 12:01:00,
2014-01-30 07:03:00,-1.0,-1.0,30.33,East,84,0.0,0.0,100,0.00,FEW,,0.00,WeatherDisplay:10.37,2014-01-30 12:03:00,
2014-01-30 07:04:00,-1.0,-1.0,30.33,East,84,0.0,0.0,100,0.00,FEW,,0.00,WeatherDisplay:10.37,2014-01-30 12:04:00,
2014-01-30 07:05:00,-1.0,-1.0,30.33,East,84,0.0,0.0,100,0.00,FEW,,0.00,WeatherDisplay:10.37,2014-01-30 12:05:00,
2014-01-30 07:06:00,-1.0,-1.0,30.33,East,84,0.0,0.0,100,0.00,FEW,,0.00,WeatherDisplay:10.37,2014-01-30 12:06:00,
2014-01-30 07:08:00,-1.0,-1.0,30.33,East,84,0.0,0.0,100,0.00,FEW,,0.00,WeatherDisplay:10.37,2014-01-30 12:08:00,
2014-01-30 07:09:00,-1.1,-1.1,30.33,East,84,0.0,0.0,100,0.00,FEW,,0.00,WeatherDisplay:10.37,2014-01-30 12:09:00,
2014-01-30 07:11:00,-1.1,-1.1,30.33,East,84,0.0,0.0,100,0.00,FEW,,0.00,WeatherDisplay:10.37,2014-01-30 12:11:00,
2014-01-30 07:12:00,-1.2,-1.2,30.33,East,84,0.0,0.0,100,0.00,FEW,,0.00,WeatherDisplay:10.37,2014-01-30 12:12:00,
2014-01-30 07:13:00,-1.2,-1.2,30.33,East,84,0.0,0.0,100,0.00,FEW,,0.00,WeatherDisplay:10.37,2014-01-30 12:13:00,
2014-01-30 07:14:00,-1.1,-1.1,30.33,East,84,0.0,0.0,100,0.00,FEW,,0.00,WeatherDisplay:10.37,2014-01-30 12:14:00,
2014-01-30 07:16:00,-1.2,-1.2,30.33,East,84,0.0,0.0,100,0.00,FEW,,0.00,WeatherDisplay:10.37,2014-01-30 12:16:00,
2014-01-30 07:17:00,-1.2,-1.2,30.33,East,84,0.0,0.0,100,0.00,FEW,,0.00,WeatherDisplay:10.37,2014-01-30 12:17:00,
2014-01-30 07:18:00,-1.2,-1.2,30.33,East,84,0.0,0.0,100,0.00,FEW,,0.00,WeatherDisplay:10.37,2014-01-30 12:18:00,
2014-01-30 07:19:00,-1.2,-1.2,30.33,East,84,0.0,0.0,100,0.00,FEW,,0.00,WeatherDisplay:10.37,2014-01-30 12:19:00,
2014-01-30 07:21:00,-1.3,-1.3,30.33,East,84,0.0,0.0,100,0.00,FEW,,0.00,WeatherDisplay:10.37,2014-01-30 12:21:00,
2014-01-30 07:22:00,-1.3,-1.3,30.33,East,84,0.0,0.0,100,0.00,FEW,,0.00,WeatherDisplay:10.37,2014-01-30 12:22:00,
2014-01-30 07:24:00,-1.3,-1.3,30.33,East,84,0.0,0.0,100,0.00,FEW,,0.00,WeatherDisplay:10.37,2014-01-30 12:24:00,
2014-01-30 07:27:00,-1.4,-1.4,30.33,East,84,0.0,0.0,100,0.00,FEW,,0.00,WeatherDisplay:10.37,2014-01-30 12:27:00,
2014-01-30 07:29:00,-1.4,-1.4,30.33,East,84,0.0,0.0,100,0.00,FEW,,0.00,WeatherDisplay:10.37,2014-01-30 12:29:00,
2014-01-30 07:30:00,-1.4,-1.4,30.33,East,84,0.0,0.0,100,0.00,FEW,,0.00,WeatherDisplay:10.37,2014-01-30 12:30:00,
2014-01-30 07:32:00,-1.5,-1.5,30.33,East,84,0.0,0.0,100,0.00,FEW,,0.00,WeatherDisplay:10.37,2014-01-30 12:32:00,
2014-01-30 07:33:00,-1.4,-1.4,30.33,East,84,0.0,0.0,100,0.00,FEW,,0.00,WeatherDisplay:10.37,2014-01-30 12:33:00,
2014-01-30 07:34:00,-1.5,-1.5,30.33,East,84,0.4,2.0,100,0.00,FEW,,0.00,WeatherDisplay:10.37,2014-01-30 12:34:00,
2014-01-30 07:35:00,-1.4,-1.4,30.33,East,84,0.9,2.3,100,0.00,FEW,,0.00,WeatherDisplay:10.37,2014-01-30 12:35:00,
2014-01-30 07:38:00,-1.5,-1.5,30.33,East,84,0.0,0.0,100,0.00,FEW,,0.00,WeatherDisplay:10.37,2014-01-30 12:38:00,
2014-01-30 07:39:00,-1.5,-1.5,30.33,East,85,0.0,0.0,100,0.00,FEW,,0.00,WeatherDisplay:10.37,2014-01-30 12:39:00,
2014-01-30 07:40:00,-1.6,-1.6,30.33,East,85,0.0,0.0,100,0.00,FEW,,0.00,WeatherDisplay:10.37,2014-01-30 12:40:00,
2014-01-30 07:43:00,-1.6,-1.6,30.32,East,85,0.0,0.0,100,0.00,FEW,,0.00,WeatherDisplay:10.37,2014-01-30 12:43:00,
2014-01-30 07:44:00,-1.6,-1.6,30.33,East,85,0.0,0.0,100,0.00,FEW,,0.00,WeatherDisplay:10.37,2014-01-30 12:44:00,
2014-01-30 07:45:00,-1.5,-1.5,30.33,East,85,0.0,0.0,100,0.00,FEW,,0.00,WeatherDisplay:10.37,2014-01-30 12:45:00,
2014-01-30 07:48:00,-1.6,-1.6,30.33,East,85,0.0,0.0,100,0.00,FEW,,0.00,WeatherDisplay:10.37,2014-01-30 12:48:00,
2014-01-30 07:49:00,-1.6,-1.6,30.33,East,84,0.0,0.0,100,0.00,FEW,,0.00,WeatherDisplay:10.37,2014-01-30 12:49:00,
2014-01-30 07:50:00,-1.6,-1.6,30.33,East,85,0.0,0.0,100,0.00,FEW,,0.00,WeatherDisplay:10.37,2014-01-30 12:50:00,
2014-01-30 07:51:00,-1.5,-1.5,30.33,East,85,0.0,0.0,100,0.00,FEW,,0.00,WeatherDisplay:10.37,2014-01-30 12:51:00,
2014-01-30 07:53:00,-1.5,-1.5,30.33,East,85,0.0,0.0,100,0.00,FEW,,0.00,WeatherDisplay:10.37,2014-01-30 12:53:00,
2014-01-30 07:54:00,-1.5,-1.5,30.33,East,85,0.0,0.0,100,0.00,FEW,,0.00,WeatherDisplay:10.37,2014-01-30 12:54:00,
2014-01-30 07:55:00,-1.5,-1.5,30.33,East,84,0.0,0.0,100,0.00,FEW,,0.00,WeatherDisplay:10.37,2014-01-30 12:55:00,
2014-01-30 07:56:00,-1.5,-1.5,30.33,East,85,0.0,0.0,100,0.00,FEW,,0.00,WeatherDisplay:10.37,2014-01-30 12:56:00,
2014-01-30 07:57:00,-1.4,-1.4,30.33,East,85,0.0,0.0,100,0.00,FEW,,0.00,WeatherDisplay:10.37,2014-01-30 12:57:00,
2014-01-30 07:59:00,-1.4,-1.4,30.33,East,85,0.0,0.0,100,0.00,FEW,,0.00,WeatherDisplay:10.37,2014-01-30 12:59:00,
2014-01-30 08:00:00,-1.5,-1.5,30.33,East,84,0.0,0.0,100,0.00,FEW,,0.00,WeatherDisplay:10.37,2014-01-30 13:00:00,
2014-01-30 08:01:00,-1.4,-1.4,30.33,East,85,0.0,0.0,100,0.00,CLR,,0.00,WeatherDisplay:10.37,2014-01-30 13:01:00,
2014-01-30 08:02:00,-1.4,-1.4,30.33,East,85,0.0,0.0,100,0.00,CLR,,0.00,WeatherDisplay:10.37,2014-01-30 13:02:00,
2014-01-30 08:04:00,-1.4,-1.4,30.33,East,84,0.0,0.0,100,0.00,CLR,,0.00,WeatherDisplay:10.37,2014-01-30 13:04:00,
2014-01-30 08:05:00,-1.3,-1.3,30.33,East,85,0.0,0.0,100,0.00,CLR,,0.00,WeatherDisplay:10.37,2014-01-30 13:05:00,
2014-01-30 08:07:00,-1.3,-1.3,30.33,East,85,0.0,0.0,100,0.00,CLR,,0.00,WeatherDisplay:10.37,2014-01-30 13:07:00,
2014-01-30 08:09:00,-1.1,-1.1,30.33,East,84,0.0,0.0,100,0.00,CLR,,0.00,WeatherDisplay:10.37,2014-01-30 13:09:00,
2014-01-30 08:10:00,-1.1,-1.1,30.33,East,85,0.0,0.0,100,0.00,CLR,,0.00,WeatherDisplay:10.37,2014-01-30 13:10:00,
2014-01-30 08:12:00,-1.0,-1.0,30.33,East,84,0.0,0.0,100,0.00,CLR,,0.00,WeatherDisplay:10.37,2014-01-30 13:12:00,
2014-01-30 08:14:00,-0.9,-0.9,30.33,East,85,0.0,0.0,100,0.00,CLR,,0.00,WeatherDisplay:10.37,2014-01-30 13:14:00,
2014-01-30 08:15:00,-0.8,-0.8,30.33,East,85,0.0,0.0,100,0.00,CLR,,0.00,WeatherDisplay:10.37,2014-01-30 13:15:00,
2014-01-30 08:16:00,-0.8,-0.8,30.33,East,85,0.0,0.0,100,0.00,CLR,,0.00,WeatherDisplay:10.37,2014-01-30 13:16:00,
2014-01-30 08:17:00,-0.7,-0.7,30.33,East,85,0.0,0.0,100,0.00,CLR,,0.00,WeatherDisplay:10.37,2014-01-30 13:17:00,
2014-01-30 08:19:00,-0.6,-0.6,30.33,East,85,0.0,0.0,100,0.00,CLR,,0.00,WeatherDisplay:10.37,2014-01-30 13:19:00,
2014-01-30 08:20:00,-0.6,-0.6,30.33,East,84,0.0,0.0,100,0.00,CLR,,0.00,WeatherDisplay:10.37,2014-01-30 13:20:00,
2014-01-30 08:21:00,-0.5,-0.5,30.33,East,85,0.0,0.0,100,0.00,CLR,,0.00,WeatherDisplay:10.37,2014-01-30 13:21:00,
2014-01-30 08:22:00,-0.4,-0.4,30.33,East,85,0.0,0.0,100,0.00,CLR,,0.00,WeatherDisplay:10.37,2014-01-30 13:22:00,
2014-01-30 08:24:00,-0.3,-0.3,30.33,East,84,0.0,0.0,100,0.00,CLR,,0.00,WeatherDisplay:10.37,2014-01-30 13:24:00,
2014-01-30 08:25:00,-0.3,-0.3,30.33,East,84,0.0,0.0,100,0.00,CLR,,0.00,WeatherDisplay:10.37,2014-01-30 13:25:00,
2014-01-30 08:26:00,-0.2,-0.2,30.33,East,85,0.0,0.0,100,0.00,CLR,,0.00,WeatherDisplay:10.37,2014-01-30 13:26:00,
2014-01-30 08:29:00,-0.1,-0.1,30.33,East,85,0.0,0.0,100,0.00,CLR,,0.00,WeatherDisplay:10.37,2014-01-30 13:29:00,
2014-01-30 08:30:00,0.0,0.0,30.33,East,85,0.0,0.0,100,0.00,CLR,,0.00,WeatherDisplay:10.37,2014-01-30 13:30:00,
2014-01-30 08:31:00,0.0,0.0,30.33,East,85,0.0,0.0,100,0.00,CLR,,0.00,WeatherDisplay:10.37,2014-01-30 13:31:00,
2014-01-30 08:34:00,0.2,0.2,30.32,East,85,0.0,0.0,100,0.00,CLR,,0.00,WeatherDisplay:10.37,2014-01-30 13:34:00,
2014-01-30 08:35:00,0.3,0.3,30.32,East,85,0.0,0.0,100,0.00,CLR,,0.00,WeatherDisplay:10.37,2014-01-30 13:35:00,
2014-01-30 08:36:00,0.3,0.3,30.32,East,85,0.0,0.0,100,0.00,CLR,,0.00,WeatherDisplay:10.37,2014-01-30 13:36:00,
2014-01-30 08:37:00,0.4,0.4,30.32,East,85,0.0,0.0,100,0.00,CLR,,0.00,WeatherDisplay:10.37,2014-01-30 13:37:00,
2014-01-30 08:39:00,0.6,0.6,30.32,East,85,0.0,0.0,100,0.00,CLR,,0.00,WeatherDisplay:10.37,2014-01-30 13:39:00,
2014-01-30 08:41:00,0.8,0.8,30.32,East,85,0.0,0.0,100,0.00,CLR,,0.00,WeatherDisplay:10.37,2014-01-30 13:41:00,
2014-01-30 08:42:00,0.9,0.9,30.33,East,85,0.0,0.0,100,0.00,CLR,,0.00,WeatherDisplay:10.37,2014-01-30 13:42:00,
2014-01-30 08:44:00,1.1,1.1,30.33,East,85,0.0,0.0,100,0.00,CLR,,0.00,WeatherDisplay:10.37,2014-01-30 13:44:00,
2014-01-30 08:45:00,1.1,1.1,30.33,East,85,0.0,0.0,100,0.00,CLR,,0.00,WeatherDisplay:10.37,2014-01-30 13:45:00,
2014-01-30 08:46:00,1.2,1.2,30.33,East,85,0.0,0.0,100,0.00,CLR,,0.00,WeatherDisplay:10.37,2014-01-30 13:46:00,
2014-01-30 08:47:00,1.3,1.3,30.32,East,85,1.0,3.5,100,0.00,CLR,,0.00,WeatherDisplay:10.37,2014-01-30 13:47:00,
2014-01-30 08:49:00,1.6,1.6,30.33,East,85,1.3,3.5,100,0.00,CLR,,0.00,WeatherDisplay:10.37,2014-01-30 13:49:00,
2014-01-30 08:50:00,1.6,1.6,30.33,East,85,1.3,3.5,100,0.00,CLR,,0.00,WeatherDisplay:10.37,2014-01-30 13:50:00,
2014-01-30 08:51:00,1.8,1.8,30.33,East,84,0.0,0.0,100,0.00,CLR,,0.00,WeatherDisplay:10.37,2014-01-30 13:51:00,
2014-01-30 08:52:00,1.9,1.9,30.33,East,85,0.0,0.0,100,0.00,CLR,,0.00,WeatherDisplay:10.37,2014-01-30 13:52:00,
2014-01-30 08:53:00,1.9,1.9,30.33,East,85,0.5,2.3,100,0.00,CLR,,0.00,WeatherDisplay:10.37,2014-01-30 13:53:00,
2014-01-30 08:55:00,2.2,2.2,30.33,East,85,0.0,0.0,100,0.00,CLR,,0.00,WeatherDisplay:10.37,2014-01-30 13:55:00,
2014-01-30 08:56:00,2.4,2.4,30.33,East,85,0.0,0.0,100,0.00,CLR,,0.00,WeatherDisplay:10.37,2014-01-30 13:56:00,
2014-01-30 08:57:00,2.5,2.5,30.33,East,84,1.3,3.5,100,0.00,CLR,,0.00,WeatherDisplay:10.37,2014-01-30 13:57:00,
2014-01-30 08:58:00,2.6,2.6,30.33,East,84,0.2,2.3,100,0.00,CLR,,0.00,WeatherDisplay:10.37,2014-01-30 13:58:00,
2014-01-30 09:00:00,2.8,2.8,30.33,East,84,1.8,3.5,100,0.00,CLR,,0.00,WeatherDisplay:10.37,2014-01-30 14:00:00,
2014-01-30 09:01:00,2.9,2.9,30.33,East,84,0.0,1.1,100,0.00,CLR,,0.00,WeatherDisplay:10.37,2014-01-30 14:01:00,
2014-01-30 09:03:00,3.1,3.1,30.33,East,84,1.1,3.5,100,0.00,CLR,,0.00,WeatherDisplay:10.37,2014-01-30 14:03:00,
2014-01-30 09:05:00,3.4,3.4,30.33,East,85,0.0,0.0,100,0.00,CLR,,0.00,WeatherDisplay:10.37,2014-01-30 14:05:00,
2014-01-30 09:06:00,3.5,3.5,30.33,East,84,0.0,0.0,100,0.00,CLR,,0.00,WeatherDisplay:10.37,2014-01-30 14:06:00,
2014-01-30 09:08:00,3.7,3.7,30.33,East,85,0.0,0.0,100,0.00,CLR,,0.00,WeatherDisplay:10.37,2014-01-30 14:08:00,
2014-01-30 09:10:00,4.0,4.0,30.33,East,85,0.0,0.0,100,0.00,CLR,,0.00,WeatherDisplay:10.37,2014-01-30 14:10:00,
2014-01-30 09:11:00,4.1,4.1,30.33,East,84,0.0,0.0,100,0.00,CLR,,0.00,WeatherDisplay:10.37,2014-01-30 14:11:00,
2014-01-30 09:12:00,4.1,4.1,30.33,East,84,0.0,0.0,100,0.00,CLR,,0.00,WeatherDisplay:10.37,2014-01-30 14:12:00,
2014-01-30 09:13:00,4.3,4.3,30.33,East,85,0.0,0.0,100,0.00,CLR,,0.00,WeatherDisplay:10.37,2014-01-30 14:13:00,
2014-01-30 09:14:00,4.3,4.3,30.33,East,85,0.0,0.0,100,0.00,CLR,,0.00,WeatherDisplay:10.37,2014-01-30 14:14:00,
2014-01-30 09:15:00,4.5,4.5,30.33,East,85,0.0,0.0,100,0.00,CLR,,0.00,WeatherDisplay:10.37,2014-01-30 14:15:00,
2014-01-30 09:16:00,4.7,4.7,30.34,East,85,0.0,0.0,100,0.00,CLR,,0.00,WeatherDisplay:10.37,2014-01-30 14:16:00,
2014-01-30 09:17:00,4.7,4.7,30.34,East,85,0.0,0.0,100,0.00,CLR,,0.00,WeatherDisplay:10.37,2014-01-30 14:17:00,
2014-01-30 09:18:00,4.9,4.9,30.34,East,85,0.0,0.0,100,0.00,CLR,,0.00,WeatherDisplay:10.37,2014-01-30 14:18:00,
2014-01-30 09:19:00,4.9,4.9,30.34,East,85,0.0,0.0,100,0.00,CLR,,0.00,WeatherDisplay:10.37,2014-01-30 14:19:00,
2014-01-30 09:20:00,5.2,5.2,30.34,East,85,0.0,0.0,100,0.00,CLR,,0.00,WeatherDisplay:10.37,2014-01-30 14:20:00,
2014-01-30 09:21:00,5.2,5.2,30.33,East,85,0.2,2.0,100,0.00,CLR,,0.00,WeatherDisplay:10.37,2014-01-30 14:21:00,
2014-01-30 09:22:00,5.3,5.3,30.33,East,85,0.9,2.3,100,0.00,CLR,,0.00,WeatherDisplay:10.37,2014-01-30 14:22:00,
2014-01-30 09:24:00,5.6,5.6,30.34,East,85,0.5,3.5,100,0.00,CLR,,0.00,WeatherDisplay:10.37,2014-01-30 14:24:00,
2014-01-30 09:26:00,5.8,5.8,30.33,East,84,0.0,0.0,100,0.00,CLR,,0.00,WeatherDisplay:10.37,2014-01-30 14:26:00,
2014-01-30 09:27:00,5.9,5.9,30.33,East,85,0.4,2.3,100,0.00,CLR,,0.00,WeatherDisplay:10.37,2014-01-30 14:27:00,
2014-01-30 09:29:00,6.2,6.2,30.33,East,85,1.4,3.5,100,0.00,CLR,,0.00,WeatherDisplay:10.37,2014-01-30 14:29:00,
2014-01-30 09:31:00,6.4,6.4,30.33,East,85,1.6,3.5,100,0.00,CLR,,0.00,WeatherDisplay:10.37,2014-01-30 14:31:00,
2014-01-30 09:32:00,6.5,6.5,30.33,East,85,1.4,3.5,100,0.00,CLR,,0.00,WeatherDisplay:10.37,2014-01-30 14:32:00,
2014-01-30 09:34:00,6.8,6.8,30.34,East,85,1.4,3.5,100,0.00,CLR,,0.00,WeatherDisplay:10.37,2014-01-30 14:34:00,
2014-01-30 09:36:00,7.1,7.1,30.34,East,85,0.0,0.0,100,0.00,CLR,,0.00,WeatherDisplay:10.37,2014-01-30 14:36:00,
2014-01-30 09:37:00,7.2,7.2,30.34,East,85,0.0,0.0,100,0.00,CLR,,0.00,WeatherDisplay:10.37,2014-01-30 14:37:00,
2014-01-30 09:39:00,7.6,7.6,30.33,East,85,1.2,2.3,100,0.00,CLR,,0.00,WeatherDisplay:10.37,2014-01-30 14:39:00,
2014-01-30 09:41:00,7.8,7.8,30.33,East,85,0.0,3.5,100,0.00,CLR,,0.00,WeatherDisplay:10.37,2014-01-30 14:41:00,
2014-01-30 09:42:00,7.9,7.9,30.33,East,85,0.0,0.0,100,0.00,CLR,,0.00,WeatherDisplay:10.37,2014-01-30 14:42:00,
2014-01-30 09:45:00,8.4,8.4,30.33,East,85,1.6,2.3,100,0.00,CLR,,0.00,WeatherDisplay:10.37,2014-01-30 14:45:00,
2014-01-30 09:47:00,8.7,8.7,30.33,East,85,0.5,3.5,100,0.00,CLR,,0.00,WeatherDisplay:10.37,2014-01-30 14:47:00,
2014-01-30 09:48:00,8.9,8.9,30.33,East,85,0.0,1.1,100,0.00,CLR,,0.00,WeatherDisplay:10.37,2014-01-30 14:48:00,
2014-01-30 09:50:00,9.1,9.1,30.33,East,85,1.0,4.0,100,0.00,CLR,,0.00,WeatherDisplay:10.37,2014-01-30 14:50:00,
2014-01-30 09:51:00,9.2,9.2,30.33,East,85,2.8,3.5,100,0.00,CLR,,0.00,WeatherDisplay:10.37,2014-01-30 14:51:00,
2014-01-30 09:52:00,9.4,9.4,30.33,East,85,0.6,3.5,100,0.00,CLR,,0.00,WeatherDisplay:10.37,2014-01-30 14:52:00,
2014-01-30 09:53:00,9.5,9.5,30.33,East,85,0.0,0.0,100,0.00,CLR,,0.00,WeatherDisplay:10.37,2014-01-30 14:53:00,
2014-01-30 09:55:00,9.7,9.7,30.33,East,85,0.0,1.1,100,0.00,CLR,,0.00,WeatherDisplay:10.37,2014-01-30 14:55:00,
2014-01-30 09:56:00,9.8,9.8,30.33,East,85,0.5,3.0,100,0.00,CLR,,0.00,WeatherDisplay:10.37,2014-01-30 14:56:00,
2014-01-30 09:57:00,10.0,10.0,30.33,East,85,3.1,3.5,100,0.00,CLR,,0.00,WeatherDisplay:10.37,2014-01-30 14:57:00,
2014-01-30 09:58:00,10.0,10.0,30.33,East,85,3.2,4.0,100,0.00,CLR,,0.00,WeatherDisplay:10.37,2014-01-30 14:58:00,
2014-01-30 10:00:00,10.3,10.3,30.33,East,86,2.7,3.5,100,0.00,CLR,,0.00,WeatherDisplay:10.37,2014-01-30 15:00:00,
2014-01-30 10:01:00,10.4,10.4,30.33,East,84,2.6,4.0,100,0.00,CLR,,0.00,WeatherDisplay:10.37,2014-01-30 15:01:00,
2014-01-30 10:02:00,10.5,10.5,30.33,East,84,2.5,3.5,100,0.00,CLR,,0.00,WeatherDisplay:10.37,2014-01-30 15:02:00,
2014-01-30 10:03:00,10.6,10.6,30.33,East,84,1.3,3.5,100,0.00,CLR,,0.00,WeatherDisplay:10.37,2014-01-30 15:03:00,
2014-01-30 10:05:00,10.9,10.9,30.33,East,81,2.3,3.5,100,0.00,CLR,,0.00,WeatherDisplay:10.37,2014-01-30 15:05:00,
2014-01-30 10:07:00,11.1,11.1,30.33,East,81,0.0,3.5,100,0.00,CLR,,0.00,WeatherDisplay:10.37,2014-01-30 15:07:00,
2014-01-30 10:08:00,11.3,11.3,30.33,East,81,0.0,0.0,100,0.00,CLR,,0.00,WeatherDisplay:10.37,2014-01-30 15:08:00,
2014-01-30 10:09:00,11.4,11.4,30.33,East,79,0.1,3.0,100,0.00,CLR,,0.00,WeatherDisplay:10.37,2014-01-30 15:09:00,
2014-01-30 10:11:00,11.7,11.7,30.34,NE,34,0.9,3.5,100,0.00,CLR,,0.00,WeatherDisplay:10.37,2014-01-30 15:11:00,
2014-01-30 10:12:00,11.9,11.9,30.34,NNE,14,0.8,3.5,100,0.00,CLR,,0.00,WeatherDisplay:10.37,2014-01-30 15:12:00,
2014-01-30 10:14:00,12.2,12.2,30.34,NNE,14,0.0,0.0,100,0.00,CLR,,0.00,WeatherDisplay:10.37,2014-01-30 15:14:00,
2014-01-30 10:15:00,12.4,12.4,30.34,NNE,29,0.4,3.0,100,0.00,CLR,,0.00,WeatherDisplay:10.37,2014-01-30 15:15:00,
2014-01-30 10:16:00,12.5,12.5,30.34,NE,36,0.2,3.5,100,0.00,CLR,,0.00,WeatherDisplay:10.37,2014-01-30 15:16:00,
2014-01-30 10:17:00,12.7,12.7,30.34,ENE,60,2.1,3.5,100,0.00,CLR,,0.00,WeatherDisplay:10.37,2014-01-30 15:17:00,
2014-01-30 10:18:00,12.7,12.7,30.34,ENE,60,1.1,3.5,100,0.00,CLR,,0.00,WeatherDisplay:10.37,2014-01-30 15:18:00,
2014-01-30 10:19:00,12.9,12.9,30.34,ENE,61,0.0,0.0,100,0.00,CLR,,0.00,WeatherDisplay:10.37,2014-01-30 15:19:00,
2014-01-30 10:20:00,13.0,13.0,30.34,ENE,60,0.0,0.0,100,0.00,CLR,,0.00,WeatherDisplay:10.37,2014-01-30 15:20:00,
2014-01-30 10:21:00,13.2,13.2,30.34,ENE,60,0.0,0.0,100,0.00,CLR,,0.00,WeatherDisplay:10.37,2014-01-30 15:21:00,
2014-01-30 10:23:00,13.5,13.5,30.35,NNE,16,0.8,3.5,100,0.00,CLR,,0.00,WeatherDisplay:10.37,2014-01-30 15:23:00,
2014-01-30 10:24:00,13.5,13.5,30.34,North,5,1.9,4.0,100,0.00,CLR,,0.00,WeatherDisplay:10.37,2014-01-30 15:24:00,
2014-01-30 10:25:00,13.6,13.6,30.35,North,355,1.6,3.5,100,0.00,CLR,,0.00,WeatherDisplay:10.37,2014-01-30 15:25:00,
2014-01-30 10:26:00,13.9,13.9,30.35,North,355,0.0,0.0,100,0.00,CLR,,0.00,WeatherDisplay:10.37,2014-01-30 15:26:00,
2014-01-30 10:29:00,14.1,14.1,30.35,North,355,0.6,2.3,100,0.00,CLR,,0.00,WeatherDisplay:10.37,2014-01-30 15:29:00,
2014-01-30 10:30:00,14.3,14.3,30.34,North,355,0.0,1.1,100,0.00,CLR,,0.00,WeatherDisplay:10.37,2014-01-30 15:30:00,
2014-01-30 10:32:00,14.5,14.5,30.34,North,355,0.0,0.0,100,0.00,CLR,,0.00,WeatherDisplay:10.37,2014-01-30 15:32:00,
2014-01-30 10:34:00,14.7,14.7,30.34,NE,51,4.2,5.8,100,0.00,CLR,,0.00,WeatherDisplay:10.37,2014-01-30 15:34:00,
2014-01-30 10:35:00,14.8,14.8,30.34,NNE,22,2.6,4.0,100,0.00,CLR,,0.00,WeatherDisplay:10.37,2014-01-30 15:35:00,
2014-01-30 10:36:00,14.9,14.9,30.34,NNE,18,0.4,3.5,100,0.00,CLR,,0.00,WeatherDisplay:10.37,2014-01-30 15:36:00,
2014-01-30 10:37:00,15.1,15.1,30.34,NNE,19,0.3,1.1,100,0.00,CLR,,0.00,WeatherDisplay:10.37,2014-01-30 15:37:00,
2014-01-30 10:39:00,15.3,15.3,30.34,ENE,58,4.2,5.8,100,0.00,CLR,,0.00,WeatherDisplay:10.37,2014-01-30 15:39:00,
2014-01-30 10:40:00,15.4,15.4,30.34,East,81,4.3,5.8,100,0.00,CLR,,0.00,WeatherDisplay:10.37,2014-01-30 15:40:00,
2014-01-30 10:41:00,15.5,15.5,30.34,East,85,2.8,5.8,100,0.00,CLR,,0.00,WeatherDisplay:10.37,2014-01-30 15:41:00,
2014-01-30 10:42:00,15.7,15.7,30.34,NE,54,2.2,3.5,100,0.00,CLR,,0.00,WeatherDisplay:10.37,2014-01-30 15:42:00,
2014-01-30 10:44:00,15.9,15.9,30.34,NE,55,3.0,4.6,100,0.00,CLR,,0.00,WeatherDisplay:10.37,2014-01-30 15:44:00,
2014-01-30 10:45:00,16.1,16.1,30.34,NE,54,1.4,3.5,100,0.00,CLR,,0.00,WeatherDisplay:10.37,2014-01-30 15:45:00,
2014-01-30 10:46:00,16.1,16.1,30.34,NE,55,0.5,3.5,100,0.00,CLR,,0.00,WeatherDisplay:10.37,2014-01-30 15:46:00,
2014-01-30 10:47:00,16.4,16.4,30.33,ENE,61,0.7,2.3,100,0.00,CLR,,0.00,WeatherDisplay:10.37,2014-01-30 15:47:00,
2014-01-30 10:49:00,16.6,16.6,30.33,ENE,61,0.0,0.0,100,0.00,CLR,,0.00,WeatherDisplay:10.37,2014-01-30 15:49:00,
2014-01-30 10:50:00,16.8,16.8,30.33,ENE,61,0.0,0.0,100,0.00,CLR,,0.00,WeatherDisplay:10.37,2014-01-30 15:50:00,
2014-01-30 10:51:00,17.0,17.0,30.33,ENE,61,0.0,1.0,100,0.00,CLR,,0.00,WeatherDisplay:10.37,2014-01-30 15:51:00,
2014-01-30 10:53:00,17.2,17.2,30.33,ENE,61,0.6,3.5,100,0.00,CLR,,0.00,WeatherDisplay:10.37,2014-01-30 15:53:00,
2014-01-30 10:54:00,17.3,17.3,30.33,ENE,62,1.7,3.5,100,0.00,CLR,,0.00,WeatherDisplay:10.37,2014-01-30 15:54:00,
2014-01-30 10:55:00,17.5,17.5,30.33,ENE,59,2.8,6.0,100,0.00,CLR,,0.00,WeatherDisplay:10.37,2014-01-30 15:55:00,
2014-01-30 10:56:00,17.6,17.6,30.32,NE,54,3.3,6.9,100,0.00,CLR,,0.00,WeatherDisplay:10.37,2014-01-30 15:56:00,
2014-01-30 10:57:00,17.7,17.7,30.32,NE,54,2.8,3.5,100,0.00,CLR,,0.00,WeatherDisplay:10.37,2014-01-30 15:57:00,
2014-01-30 10:58:00,17.8,17.8,30.32,NE,44,2.4,3.5,100,0.00,CLR,,0.00,WeatherDisplay:10.37,2014-01-30 15:58:00,
2014-01-30 10:59:00,18.0,18.0,30.32,NE,50,2.6,3.5,100,0.00,CLR,,0.00,WeatherDisplay:10.37,2014-01-30 15:59:00,
2014-01-30 11:00:00,18.1,18.1,30.32,ENE,58,1.7,4.0,100,0.00,CLR,,0.00,WeatherDisplay:10.37,2014-01-30 16:00:00,
2014-01-30 11:01:00,18.3,18.3,30.32,ENE,76,1.7,3.5,100,0.00,CLR,,0.00,WeatherDisplay:10.37,2014-01-30 16:01:00,
2014-01-30 11:02:00,18.3,18.3,30.32,ENE,71,1.2,3.5,100,0.00,CLR,,0.00,WeatherDisplay:10.37,2014-01-30 16:02:00,
2014-01-30 11:03:00,18.5,18.5,30.32,NE,43,1.2,3.5,100,0.00,CLR,,0.00,WeatherDisplay:10.37,2014-01-30 16:03:00,
2014-01-30 11:04:00,18.6,18.6,30.32,ENE,76,1.7,3.5,100,0.00,CLR,,0.00,WeatherDisplay:10.37,2014-01-30 16:04:00,
2014-01-30 11:05:00,18.8,18.8,30.32,East,89,2.7,3.5,100,0.00,CLR,,0.00,WeatherDisplay:10.37,2014-01-30 16:05:00,
2014-01-30 11:07:00,18.9,18.9,30.32,East,98,1.6,3.5,100,0.00,CLR,,0.00,WeatherDisplay:10.37,2014-01-30 16:07:00,
2014-01-30 11:09:00,19.1,19.1,30.32,East,99,0.4,2.3,100,0.00,CLR,,0.00,WeatherDisplay:10.37,2014-01-30 16:09:00,
2014-01-30 11:10:00,19.2,19.2,30.32,East,99,0.0,0.0,100,0.00,CLR,,0.00,WeatherDisplay:10.37,2014-01-30 16:10:00,
2014-01-30 11:11:00,19.4,19.4,30.32,East,95,0.1,3.0,100,0.00,CLR,,0.00,WeatherDisplay:10.37,2014-01-30 16:11:00,
2014-01-30 11:12:00,19.5,19.5,30.32,ESE,106,1.9,5.0,100,0.00,CLR,,0.00,WeatherDisplay:10.37,2014-01-30 16:12:00,
2014-01-30 11:13:00,19.6,19.6,30.32,East,86,2.8,5.8,100,0.00,CLR,,0.00,WeatherDisplay:10.37,2014-01-30 16:13:00,
2014-01-30 11:14:00,19.7,19.7,30.32,East,98,3.6,6.0,100,0.00,CLR,,0.00,WeatherDisplay:10.37,2014-01-30 16:14:00,
2014-01-30 11:15:00,19.8,19.8,30.32,ESE,121,1.7,6.9,100,0.00,CLR,,0.00,WeatherDisplay:10.37,2014-01-30 16:15:00,
2014-01-30 11:16:00,19.9,19.9,30.32,ESE,111,4.9,6.0,100,0.00,CLR,,0.00,WeatherDisplay:10.37,2014-01-30 16:16:00,
2014-01-30 11:17:00,20.0,20.0,30.32,East,97,4.5,8.1,100,0.00,CLR,,0.00,WeatherDisplay:10.37,2014-01-30 16:17:00,
2014-01-30 11:18:00,20.1,20.1,30.32,ESE,123,3.7,5.8,100,0.00,CLR,,0.00,WeatherDisplay:10.37,2014-01-30 16:18:00,
2014-01-30 11:19:00,20.3,20.3,30.32,SE,129,2.8,4.6,100,0.00,CLR,,0.00,WeatherDisplay:10.37,2014-01-30 16:19:00,
2014-01-30 11:20:00,20.5,20.5,30.32,NNE,29,0.1,3.5,100,0.00,CLR,,0.00,WeatherDisplay:10.37,2014-01-30 16:20:00,
2014-01-30 11:22:00,20.8,20.8,30.32,ENE,68,0.4,2.0,100,0.00,CLR,,0.00,WeatherDisplay:10.37,2014-01-30 16:22:00,
2014-01-30 11:23:00,20.8,20.8,30.32,SSE,159,1.4,4.0,100,0.00,CLR,,0.00,WeatherDisplay:10.37,2014-01-30 16:23:00,
2014-01-30 11:24:00,21.0,21.0,30.32,SE,133,1.0,3.5,100,0.00,CLR,,0.00,WeatherDisplay:10.37,2014-01-30 16:24:00,
2014-01-30 11:25:00,21.1,21.1,30.32,SE,125,1.2,3.5,100,0.00,CLR,,0.00,WeatherDisplay:10.37,2014-01-30 16:25:00,
2014-01-30 11:27:00,21.5,21.5,30.32,SE,125,0.0,0.0,100,0.00,CLR,,0.00,WeatherDisplay:10.37,2014-01-30 16:27:00,
2014-01-30 11:28:00,21.5,21.5,30.32,SE,125,0.0,0.0,100,0.00,CLR,,0.00,WeatherDisplay:10.37,2014-01-30 16:28:00,
2014-01-30 11:29:00,21.7,21.7,30.32,South,173,0.8,3.5,100,0.00,CLR,,0.00,WeatherDisplay:10.37,2014-01-30 16:29:00,
2014-01-30 11:30:00,21.8,21.8,30.32,South,170,0.1,3.5,100,0.00,CLR,,0.00,WeatherDisplay:10.37,2014-01-30 16:30:00,
2014-01-30 11:32:00,22.0,22.0,30.32,ESE,113,0.3,3.5,100,0.00,CLR,,0.00,WeatherDisplay:10.37,2014-01-30 16:32:00,
2014-01-30 11:33:00,22.0,22.0,30.32,ESE,109,0.3,2.3,100,0.00,CLR,,0.00,WeatherDisplay:10.37,2014-01-30 16:33:00,
2014-01-30 11:35:00,22.2,22.2,30.32,ESE,119,1.8,3.5,100,0.00,CLR,,0.00,WeatherDisplay:10.37,2014-01-30 16:35:00,
2014-01-30 11:38:00,22.5,22.5,30.32,SE,146,0.4,2.3,100,0.00,CLR,,0.00,WeatherDisplay:10.37,2014-01-30 16:38:00,
2014-01-30 11:40:00,22.8,22.8,30.32,SE,141,0.2,2.3,100,0.00,CLR,,0.00,WeatherDisplay:10.37,2014-01-30 16:40:00,
2014-01-30 11:43:00,23.2,23.2,30.32,ESE,107,0.0,0.0,100,0.00,CLR,,0.00,WeatherDisplay:10.37,2014-01-30 16:43:00,
2014-01-30 11:44:00,23.3,23.3,30.32,ESE,107,0.0,0.0,100,0.00,CLR,,0.00,WeatherDisplay:10.37,2014-01-30 16:44:00,
2014-01-30 11:45:00,23.4,23.4,30.32,ESE,107,0.0,0.0,100,0.00,CLR,,0.00,WeatherDisplay:10.37,2014-01-30 16:45:00,
2014-01-30 11:48:00,23.6,23.6,30.32,ENE,72,0.0,1.0,100,0.00,CLR,,0.00,WeatherDisplay:10.37,2014-01-30 16:48:00,
2014-01-30 11:49:00,23.7,23.7,30.32,NNE,13,0.1,1.1,100,0.00,CLR,,0.00,WeatherDisplay:10.37,2014-01-30 16:49:00,
2014-01-30 11:50:00,23.8,23.8,30.32,NNE,27,2.4,3.5,100,0.00,CLR,,0.00,WeatherDisplay:10.37,2014-01-30 16:50:00,
2014-01-30 11:51:00,23.9,23.9,30.32,NNE,28,2.5,3.5,100,0.00,CLR,,0.00,WeatherDisplay:10.37,2014-01-30 16:51:00,
2014-01-30 11:53:00,24.1,24.1,30.32,North,1,0.9,2.3,100,0.00,CLR,,0.00,WeatherDisplay:10.37,2014-01-30 16:53:00,
2014-01-30 11:54:00,24.2,24.2,30.32,North,356,1.9,3.5,100,0.00,CLR,,0.00,WeatherDisplay:10.37,2014-01-30 16:54:00,
2014-01-30 11:55:00,24.3,24.3,30.32,NNW,346,0.7,3.5,100,0.00,CLR,,0.00,WeatherDisplay:10.37,2014-01-30 16:55:00,
2014-01-30 11:57:00,24.4,24.4,30.32,NW,304,2.0,3.5,100,0.00,CLR,,0.00,WeatherDisplay:10.37,2014-01-30 16:57:00,
2014-01-30 11:59:00,24.5,24.5,30.32,NW,304,1.3,2.3,100,0.00,CLR,,0.00,WeatherDisplay:10.37,2014-01-30 16:59:00,
2014-01-30 12:00:00,24.6,24.6,30.32,NW,304,0.0,1.1,100,0.00,CLR,,0.00,WeatherDisplay:10.37,2014-01-30 17:00:00,
2014-01-30 12:02:00,24.9,24.9,30.32,ESE,108,1.7,3.5,100,0.00,FEW,,0.00,WeatherDisplay:10.37,2014-01-30 17:02:00,
2014-01-30 12:04:00,25.1,25.1,30.32,ESE,123,1.0,2.3,100,0.00,FEW,,0.00,WeatherDisplay:10.37,2014-01-30 17:04:00,
2014-01-30 12:05:00,25.2,25.2,30.32,ESE,123,0.9,2.3,100,0.00,FEW,,0.00,WeatherDisplay:10.37,2014-01-30 17:05:00,
2014-01-30 12:07:00,25.5,25.5,30.31,East,95,4.8,5.8,100,0.00,FEW,,0.00,WeatherDisplay:10.37,2014-01-30 17:07:00,
2014-01-30 12:09:00,25.7,25.7,30.31,East,86,2.5,3.5,100,0.00,FEW,,0.00,WeatherDisplay:10.37,2014-01-30 17:09:00,
2014-01-30 12:10:00,25.8,25.8,30.31,ENE,75,0.9,3.5,100,0.00,FEW,,0.00,WeatherDisplay:10.37,2014-01-30 17:10:00,
2014-01-30 12:11:00,25.9,25.9,30.31,ENE,75,0.0,1.1,100,0.00,FEW,,0.00,WeatherDisplay:10.37,2014-01-30 17:11:00,
2014-01-30 12:12:00,26.1,26.1,30.30,ENE,75,0.0,0.0,100,0.00,FEW,,0.00,WeatherDisplay:10.37,2014-01-30 17:12:00,
2014-01-30 12:14:00,26.4,26.4,30.30,ENE,63,1.2,3.5,100,0.00,FEW,,0.00,WeatherDisplay:10.37,2014-01-30 17:14:00,
2014-01-30 12:15:00,26.4,26.4,30.30,ENE,63,0.3,3.5,100,0.00,FEW,,0.00,WeatherDisplay:10.37,2014-01-30 17:15:00,
2014-01-30 12:16:00,26.5,26.5,30.30,ENE,64,0.0,0.0,100,0.00,FEW,,0.00,WeatherDisplay:10.37,2014-01-30 17:16:00,
2014-01-30 12:17:00,26.6,26.6,30.30,ENE,64,0.0,0.0,100,0.00,FEW,,0.00,WeatherDisplay:10.37,2014-01-30 17:17:00,
2014-01-30 12:20:00,26.9,26.9,30.30,ESE,102,0.8,5.0,100,0.00,FEW,,0.00,WeatherDisplay:10.37,2014-01-30 17:20:00,
2014-01-30 12:21:00,27.0,27.0,30.30,East,99,0.7,5.8,100,0.00,FEW,,0.00,WeatherDisplay:10.37,2014-01-30 17:21:00,
2014-01-30 12:22:00,27.2,27.2,30.30,NE,56,3.2,4.0,100,0.00,FEW,,0.00,WeatherDisplay:10.37,2014-01-30 17:22:00,
2014-01-30 12:23:00,27.3,27.3,30.30,NE,54,3.5,4.6,100,0.00,FEW,,0.00,WeatherDisplay:10.37,2014-01-30 17:23:00,
2014-01-30 12:25:00,27.6,27.6,30.30,ESE,108,1.8,3.5,100,0.00,FEW,,0.00,WeatherDisplay:10.37,2014-01-30 17:25:00,
2014-01-30 12:26:00,27.8,27.8,30.30,East,97,0.4,3.5,100,0.00,FEW,,0.00,WeatherDisplay:10.37,2014-01-30 17:26:00,
2014-01-30 12:27:00,27.8,27.8,30.30,East,95,0.8,3.5,100,0.00,FEW,,0.00,WeatherDisplay:10.37,2014-01-30 17:27:00,
2014-01-30 12:28:00,28.0,28.0,30.29,East,95,1.6,3.5,100,0.00,FEW,,0.00,WeatherDisplay:10.37,2014-01-30 17:28:00,
2014-01-30 12:30:00,28.5,28.5,30.30,ESE,110,0.5,3.5,100,0.00,FEW,,0.00,WeatherDisplay:10.37,2014-01-30 17:30:00,
2014-01-30 12:31:00,28.5,28.5,30.30,ESE,111,0.4,2.3,100,0.00,FEW,,0.00,WeatherDisplay:10.37,2014-01-30 17:31:00,
2014-01-30 12:32:00,28.7,28.7,30.30,ESE,113,2.4,4.6,100,0.00,FEW,,0.00,WeatherDisplay:10.37,2014-01-30 17:32:00,
2014-01-30 12:33:00,28.8,28.8,30.30,SE,126,2.1,3.5,100,0.00,FEW,,0.00,WeatherDisplay:10.37,2014-01-30 17:33:00,
2014-01-30 12:35:00,29.2,29.2,30.30,SE,128,0.4,2.0,100,0.00,FEW,,0.00,WeatherDisplay:10.37,2014-01-30 17:35:00,
2014-01-30 12:36:00,29.2,29.2,30.30,SE,128,0.9,3.0,100,0.00,FEW,,0.00,WeatherDisplay:10.37,2014-01-30 17:36:00,
2014-01-30 12:37:00,29.2,29.2,30.30,East,97,3.5,3.5,100,0.00,FEW,,0.00,WeatherDisplay:10.37,2014-01-30 17:37:00,
2014-01-30 12:38:00,29.3,29.3,30.30,East,98,2.8,4.6,100,0.00,FEW,,0.00,WeatherDisplay:10.37,2014-01-30 17:38:00,
2014-01-30 12:40:00,29.5,29.5,30.30,East,84,0.2,2.0,100,0.00,FEW,,0.00,WeatherDisplay:10.37,2014-01-30 17:40:00,
2014-01-30 12:41:00,29.5,29.5,30.30,ENE,74,0.5,2.3,100,0.00,FEW,,0.00,WeatherDisplay:10.37,2014-01-30 17:41:00,
2014-01-30 12:42:00,29.6,29.6,30.30,NE,55,4.2,5.8,100,0.00,FEW,,0.00,WeatherDisplay:10.37,2014-01-30 17:42:00,
2014-01-30 12:43:00,29.6,29.6,30.30,ENE,66,3.7,5.0,100,0.00,FEW,,0.00,WeatherDisplay:10.37,2014-01-30 17:43:00,
2014-01-30 12:44:00,29.7,29.7,30.29,ENE,58,3.0,4.6,100,0.00,FEW,,0.00,WeatherDisplay:10.37,2014-01-30 17:44:00,
2014-01-30 12:46:00,29.7,29.7,30.29,NNE,29,1.4,3.5,100,0.00,FEW,,0.00,WeatherDisplay:10.37,2014-01-30 17:46:00,
2014-01-30 12:47:00,29.9,29.9,30.29,NE,52,0.9,2.3,100,0.00,FEW,,0.00,WeatherDisplay:10.37,2014-01-30 17:47:00,
2014-01-30 12:48:00,30.0,30.0,30.29,NE,52,0.1,3.5,100,0.00,FEW,,0.00,WeatherDisplay:10.37,2014-01-30 17:48:00,
2014-01-30 12:49:00,30.3,30.3,30.29,NE,52,0.0,0.0,100,0.00,FEW,,0.00,WeatherDisplay:10.37,2014-01-30 17:49:00,
2014-01-30 12:51:00,30.5,30.5,30.29,NE,52,0.1,2.3,100,0.00,FEW,,0.00,WeatherDisplay:10.37,2014-01-30 17:51:00,
2014-01-30 12:52:00,30.6,30.6,30.28,ESE,102,0.7,1.1,100,0.00,FEW,,0.00,WeatherDisplay:10.37,2014-01-30 17:52:00,
2014-01-30 12:53:00,30.7,30.7,30.28,ESE,104,1.3,3.5,100,0.00,FEW,,0.00,WeatherDisplay:10.37,2014-01-30 17:53:00,
2014-01-30 12:54:00,30.8,30.8,30.28,ESE,109,1.5,3.5,100,0.00,FEW,,0.00,WeatherDisplay:10.37,2014-01-30 17:54:00,
2014-01-30 12:56:00,31.0,31.0,30.28,SE,133,0.0,1.0,100,0.00,FEW,,0.00,WeatherDisplay:10.37,2014-01-30 17:56:00,
2014-01-30 12:57:00,31.0,31.0,30.28,South,180,0.8,3.5,100,0.00,FEW,,0.00,WeatherDisplay:10.37,2014-01-30 17:57:00,
2014-01-30 12:58:00,31.0,31.0,30.27,SE,124,0.2,1.1,100,0.00,FEW,,0.00,WeatherDisplay:10.37,2014-01-30 17:58:00,
2014-01-30 12:59:00,31.0,31.0,30.27,SSW,195,0.0,0.0,100,0.00,FEW,,0.00,WeatherDisplay:10.37,2014-01-30 17:59:00,
2014-01-30 13:00:00,31.0,31.0,30.27,WNW,283,0.6,4.0,100,0.00,FEW,,0.00,WeatherDisplay:10.37,2014-01-30 18:00:00,
2014-01-30 13:01:00,31.0,31.0,30.27,WSW,241,2.3,4.6,100,0.00,FEW,,0.00,WeatherDisplay:10.37,2014-01-30 18:01:00,
2014-01-30 13:02:00,31.1,31.1,30.26,SSW,192,1.0,2.3,100,0.00,FEW,,0.00,WeatherDisplay:10.37,2014-01-30 18:02:00,
2014-01-30 13:03:00,31.1,31.1,30.26,SW,216,3.7,9.2,100,0.00,FEW,,0.00,WeatherDisplay:10.37,2014-01-30 18:03:00,
2014-01-30 13:04:00,31.2,31.2,30.26,South,174,4.5,9.2,100,0.00,FEW,,0.00,WeatherDisplay:10.37,2014-01-30 18:04:00,
2014-01-30 13:05:00,31.2,31.2,30.26,SSW,204,3.5,8.0,100,0.00,FEW,,0.00,WeatherDisplay:10.37,2014-01-30 18:05:00,
2014-01-30 13:06:00,31.2,31.2,30.26,SSW,208,6.9,9.2,100,0.00,FEW,,0.00,WeatherDisplay:10.37,2014-01-30 18:06:00,
2014-01-30 13:08:00,31.3,31.3,30.26,SW,236,6.4,10.4,100,0.00,FEW,,0.00,WeatherDisplay:10.37,2014-01-30 18:08:00,
2014-01-30 13:09:00,31.3,31.3,30.25,South,173,2.4,8.1,100,0.00,FEW,,0.00,WeatherDisplay:10.37,2014-01-30 18:09:00,
2014-01-30 13:10:00,31.4,31.4,30.25,SE,143,1.5,8.1,100,0.00,FEW,,0.00,WeatherDisplay:10.37,2014-01-30 18:10:00,
2014-01-30 13:11:00,31.4,31.4,30.25,SSW,202,1.8,3.5,100,0.00,FEW,,0.00,WeatherDisplay:10.37,2014-01-30 18:11:00,
2014-01-30 13:13:00,31.4,31.4,30.25,SSW,200,8.3,11.5,100,0.00,FEW,,0.00,WeatherDisplay:10.37,2014-01-30 18:13:00,
2014-01-30 13:14:00,31.4,31.4,30.25,SSW,205,3.7,9.2,100,0.00,FEW,,0.00,WeatherDisplay:10.37,2014-01-30 18:14:00,
2014-01-30 13:15:00,31.5,31.5,30.25,SW,228,4.8,4.8,100,0.00,FEW,,0.00,WeatherDisplay:10.37,2014-01-30 18:15:00,
2014-01-30 13:16:00,31.5,31.5,30.25,WSW,245,5.5,7.0,100,0.00,FEW,,0.00,WeatherDisplay:10.37,2014-01-30 18:16:00,
2014-01-30 13:18:00,31.3,31.3,30.25,WSW,257,5.0,5.8,100,0.00,FEW,,0.00,WeatherDisplay:10.37,2014-01-30 18:18:00,
2014-01-30 13:20:00,31.3,31.3,30.25,SW,219,4.7,7.0,100,0.00,FEW,,0.00,WeatherDisplay:10.37,2014-01-30 18:20:00,
2014-01-30 13:21:00,31.4,31.4,30.25,SSE,164,3.1,9.2,100,0.00,FEW,,0.00,WeatherDisplay:10.37,2014-01-30 18:21:00,
2014-01-30 13:23:00,31.6,31.6,30.25,SE,145,0.2,3.5,100,0.00,FEW,,0.00,WeatherDisplay:10.37,2014-01-30 18:23:00,
2014-01-30 13:24:00,31.6,31.6,30.25,SW,231,1.1,5.0,100,0.00,FEW,,0.00,WeatherDisplay:10.37,2014-01-30 18:24:00,
2014-01-30 13:25:00,31.8,31.8,30.25,SW,222,4.6,5.8,100,0.00,FEW,,0.00,WeatherDisplay:10.37,2014-01-30 18:25:00,
2014-01-30 13:27:00,31.8,31.8,30.24,SSW,200,3.5,6.9,100,0.00,FEW,,0.00,WeatherDisplay:10.37,2014-01-30 18:27:00,
2014-01-30 13:28:00,32.0,32.0,30.24,SW,222,0.5,5.8,100,0.00,FEW,,0.00,WeatherDisplay:10.37,2014-01-30 18:28:00,
2014-01-30 13:29:00,32.0,32.0,30.24,WSW,237,1.0,6.0,100,0.00,FEW,,0.00,WeatherDisplay:10.37,2014-01-30 18:29:00,
2014-01-30 13:30:00,32.1,32.1,30.24,WSW,245,3.1,5.8,100,0.00,FEW,,0.00,WeatherDisplay:10.37,2014-01-30 18:30:00,
2014-01-30 13:32:00,32.2,32.2,30.24,SSE,162,0.0,0.0,100,0.00,FEW,,0.00,WeatherDisplay:10.37,2014-01-30 18:32:00,
2014-01-30 13:34:00,32.5,32.5,30.23,South,185,0.5,5.8,100,0.00,FEW,,0.00,WeatherDisplay:10.37,2014-01-30 18:34:00,
2014-01-30 13:35:00,32.6,32.6,30.23,South,169,2.4,3.5,100,0.00,FEW,,0.00,WeatherDisplay:10.37,2014-01-30 18:35:00,
2014-01-30 13:37:00,32.8,32.8,30.23,South,191,3.5,7.0,100,0.00,FEW,,0.00,WeatherDisplay:10.37,2014-01-30 18:37:00,
2014-01-30 13:39:00,33.0,33.0,30.23,SW,220,4.2,6.9,100,0.00,FEW,,0.00,WeatherDisplay:10.37,2014-01-30 18:39:00,
2014-01-30 13:40:00,33.1,33.1,30.23,SW,227,4.5,6.9,100,0.00,FEW,,0.00,WeatherDisplay:10.37,2014-01-30 18:40:00,
2014-01-30 13:41:00,33.2,33.2,30.23,South,179,4.4,6.9,100,0.00,FEW,,0.00,WeatherDisplay:10.37,2014-01-30 18:41:00,
2014-01-30 13:42:00,33.2,33.2,30.23,SSE,149,2.3,6.9,100,0.00,FEW,,0.00,WeatherDisplay:10.37,2014-01-30 18:42:00,
2014-01-30 13:44:00,33.3,33.3,30.23,ESE,118,3.8,5.8,100,0.00,FEW,,0.00,WeatherDisplay:10.37,2014-01-30 18:44:00,
2014-01-30 13:45:00,33.4,33.4,30.23,ESE,109,5.2,9.2,100,0.00,FEW,,0.00,WeatherDisplay:10.37,2014-01-30 18:45:00,
2014-01-30 13:46:00,33.4,33.4,30.23,ESE,121,6.8,9.2,100,0.00,FEW,,0.00,WeatherDisplay:10.37,2014-01-30 18:46:00,
2014-01-30 13:47:00,33.5,33.5,30.22,ESE,120,6.6,9.2,100,0.00,FEW,,0.00,WeatherDisplay:10.37,2014-01-30 18:47:00,
2014-01-30 13:49:00,33.6,33.6,30.22,ESE,119,5.6,12.0,100,0.00,FEW,,0.00,WeatherDisplay:10.37,2014-01-30 18:49:00,
2014-01-30 13:50:00,33.7,33.7,30.22,ESE,114,8.6,11.5,100,0.00,FEW,,0.00,WeatherDisplay:10.37,2014-01-30 18:50:00,
2014-01-30 13:51:00,33.7,33.7,30.22,SE,125,6.3,10.4,100,0.00,FEW,,0.00,WeatherDisplay:10.37,2014-01-30 18:51:00,
2014-01-30 13:52:00,33.8,33.8,30.22,ESE,105,6.2,11.5,100,0.00,FEW,,0.00,WeatherDisplay:10.37,2014-01-30 18:52:00,
2014-01-30 13:53:00,33.8,33.8,30.22,SSW,192,3.3,5.8,100,0.00,FEW,,0.00,WeatherDisplay:10.37,2014-01-30 18:53:00,
2014-01-30 13:54:00,33.9,33.9,30.21,SE,127,3.0,4.6,100,0.00,FEW,,0.00,WeatherDisplay:10.37,2014-01-30 18:54:00,
2014-01-30 13:55:00,34.0,34.0,30.21,ESE,122,3.8,9.0,100,0.00,FEW,,0.00,WeatherDisplay:10.37,2014-01-30 18:55:00,
2014-01-30 13:56:00,34.1,34.1,30.21,SE,136,4.7,9.2,100,0.00,FEW,,0.00,WeatherDisplay:10.37,2014-01-30 18:56:00,
2014-01-30 13:57:00,34.1,34.1,30.21,ESE,119,3.9,5.8,100,0.00,FEW,,0.00,WeatherDisplay:10.37,2014-01-30 18:57:00,
2014-01-30 13:58:00,34.2,34.2,30.21,ESE,118,5.4,8.1,100,0.00,FEW,,0.00,WeatherDisplay:10.37,2014-01-30 18:58:00,
2014-01-30 14:00:00,34.3,34.3,30.21,SE,125,1.6,3.5,100,0.00,FEW,,0.00,WeatherDisplay:10.37,2014-01-30 19:00:00,
2014-01-30 14:02:00,34.4,34.4,30.21,SSE,157,0.1,3.5,100,0.00,SCT,,0.00,WeatherDisplay:10.37,2014-01-30 19:02:00,
2014-01-30 14:05:00,34.3,34.3,30.20,South,176,4.9,6.9,100,0.00,SCT,,0.00,WeatherDisplay:10.37,2014-01-30 19:05:00,
2014-01-30 14:07:00,34.4,34.4,30.20,SSE,160,3.9,5.8,100,0.00,SCT,,0.00,WeatherDisplay:10.37,2014-01-30 19:07:00,
2014-01-30 14:08:00,34.5,34.5,30.20,South,181,2.7,8.1,100,0.00,SCT,,0.00,WeatherDisplay:10.37,2014-01-30 19:08:00,
2014-01-30 14:10:00,34.6,34.6,30.20,SE,133,2.2,4.6,100,0.00,SCT,,0.00,WeatherDisplay:10.37,2014-01-30 19:10:00,
2014-01-30 14:11:00,34.7,34.7,30.20,ESE,115,5.0,6.9,100,0.00,SCT,,0.00,WeatherDisplay:10.37,2014-01-30 19:11:00,
2014-01-30 14:12:00,34.8,34.8,30.20,SE,128,1.7,6.9,100,0.00,SCT,,0.00,WeatherDisplay:10.37,2014-01-30 19:12:00,
2014-01-30 14:13:00,34.8,34.8,30.20,ESE,117,1.2,4.6,100,0.00,SCT,,0.00,WeatherDisplay:10.37,2014-01-30 19:13:00,
2014-01-30 14:15:00,34.9,34.9,30.20,South,183,7.1,11.5,100,0.00,SCT,,0.00,WeatherDisplay:10.37,2014-01-30 19:15:00,
2014-01-30 14:16:00,34.8,34.8,30.20,South,182,6.7,11.5,100,0.00,SCT,,0.00,WeatherDisplay:10.37,2014-01-30 19:16:00,
2014-01-30 14:17:00,34.7,34.7,30.20,ESE,123,6.1,11.5,100,0.00,SCT,,0.00,WeatherDisplay:10.37,2014-01-30 19:17:00,
2014-01-30 14:18:00,34.8,34.8,30.20,ESE,122,6.3,10.4,100,0.00,SCT,,0.00,WeatherDisplay:10.37,2014-01-30 19:18:00,
2014-01-30 14:20:00,34.8,34.8,30.19,SE,125,3.6,6.0,100,0.00,SCT,,0.00,WeatherDisplay:10.37,2014-01-30 19:20:00,
2014-01-30 14:21:00,34.8,34.8,30.19,ESE,120,5.4,7.0,100,0.00,SCT,,0.00,WeatherDisplay:10.37,2014-01-30 19:21:00,
2014-01-30 14:22:00,34.9,34.9,30.19,SE,125,6.6,11.5,100,0.00,SCT,,0.00,WeatherDisplay:10.37,2014-01-30 19:22:00,
2014-01-30 14:23:00,34.9,34.9,30.19,ESE,119,5.6,11.5,100,0.00,SCT,,0.00,WeatherDisplay:10.37,2014-01-30 19:23:00,
2014-01-30 14:24:00,35.0,35.0,30.18,ESE,114,4.2,6.0,100,0.00,SCT,,0.00,WeatherDisplay:10.37,2014-01-30 19:24:00,
2014-01-30 14:25:00,35.2,35.2,30.18,SE,136,6.0,9.2,100,0.00,SCT,,0.00,WeatherDisplay:10.37,2014-01-30 19:25:00,
2014-01-30 14:26:00,35.2,35.2,30.18,SE,125,5.3,8.1,100,0.00,SCT,,0.00,WeatherDisplay:10.37,2014-01-30 19:26:00,
2014-01-30 14:28:00,35.4,35.4,30.18,South,174,3.2,4.6,100,0.00,SCT,,0.00,WeatherDisplay:10.37,2014-01-30 19:28:00,
2014-01-30 14:30:00,35.6,35.6,30.18,SSW,194,3.4,6.9,100,0.00,SCT,,0.00,WeatherDisplay:10.37,2014-01-30 19:30:00,
2014-01-30 14:31:00,35.7,35.7,30.18,SSW,197,3.4,8.1,100,0.00,SCT,,0.00,WeatherDisplay:10.37,2014-01-30 19:31:00,
2014-01-30 14:33:00,35.7,35.7,30.18,SW,223,0.1,3.5,100,0.00,SCT,,0.00,WeatherDisplay:10.37,2014-01-30 19:33:00,
2014-01-30 14:35:00,36.0,36.0,30.18,SE,141,0.0,2.0,100,0.00,SCT,,0.00,WeatherDisplay:10.37,2014-01-30 19:35:00,
2014-01-30 14:36:00,36.1,36.1,30.18,ESE,115,3.4,8.1,100,0.00,SCT,,0.00,WeatherDisplay:10.37,2014-01-30 19:36:00,
2014-01-30 14:37:00,36.1,36.1,30.18,ESE,118,2.9,8.1,100,0.00,SCT,,0.00,WeatherDisplay:10.37,2014-01-30 19:37:00,
2014-01-30 14:38:00,36.1,36.1,30.18,SE,142,0.9,4.6,100,0.00,SCT,,0.00,WeatherDisplay:10.37,2014-01-30 19:38:00,
2014-01-30 14:39:00,36.0,36.0,30.18,South,188,1.2,3.5,100,0.00,SCT,,0.00,WeatherDisplay:10.37,2014-01-30 19:39:00,
2014-01-30 14:41:00,35.9,35.9,30.17,SE,126,1.5,4.6,100,0.00,SCT,,0.00,WeatherDisplay:10.37,2014-01-30 19:41:00,
2014-01-30 14:42:00,35.8,35.8,30.17,South,174,2.2,5.8,100,0.00,SCT,,0.00,WeatherDisplay:10.37,2014-01-30 19:42:00,
2014-01-30 14:43:00,35.7,35.7,30.17,ESE,118,2.4,4.0,100,0.00,SCT,,0.00,WeatherDisplay:10.37,2014-01-30 19:43:00,
2014-01-30 14:44:00,35.7,35.7,30.17,ESE,121,4.0,5.8,100,0.00,SCT,,0.00,WeatherDisplay:10.37,2014-01-30 19:44:00,
2014-01-30 14:46:00,35.7,35.7,30.17,SE,124,4.0,6.9,100,0.00,SCT,,0.00,WeatherDisplay:10.37,2014-01-30 19:46:00,
2014-01-30 14:47:00,35.9,35.9,30.17,South,183,2.1,5.8,100,0.00,SCT,,0.00,WeatherDisplay:10.37,2014-01-30 19:47:00,
2014-01-30 14:48:00,35.9,35.9,30.17,South,189,2.0,5.8,100,0.00,SCT,,0.00,WeatherDisplay:10.37,2014-01-30 19:48:00,
2014-01-30 14:49:00,36.0,36.0,30.17,SE,131,3.0,6.0,100,0.00,SCT,,0.00,WeatherDisplay:10.37,2014-01-30 19:49:00,
2014-01-30 14:51:00,36.1,36.1,30.16,ESE,108,2.7,5.8,100,0.00,SCT,,0.00,WeatherDisplay:10.37,2014-01-30 19:51:00,
2014-01-30 14:52:00,36.2,36.2,30.17,SE,127,2.4,4.6,100,0.00,SCT,,0.00,WeatherDisplay:10.37,2014-01-30 19:52:00,
2014-01-30 14:53:00,36.3,36.3,30.17,ESE,120,2.7,4.6,100,0.00,SCT,,0.00,WeatherDisplay:10.37,2014-01-30 19:53:00,
2014-01-30 14:54:00,36.4,36.4,30.17,SSE,161,1.6,3.5,100,0.00,SCT,,0.00,WeatherDisplay:10.37,2014-01-30 19:54:00,
2014-01-30 14:56:00,36.5,36.5,30.17,ESE,123,3.0,6.9,100,0.00,SCT,,0.00,WeatherDisplay:10.37,2014-01-30 19:56:00,
2014-01-30 14:58:00,36.4,36.4,30.17,ESE,113,2.1,4.6,100,0.00,SCT,,0.00,WeatherDisplay:10.37,2014-01-30 19:58:00,
2014-01-30 14:59:00,36.4,36.4,30.17,ESE,114,0.3,3.5,100,0.00,SCT,,0.00,WeatherDisplay:10.37,2014-01-30 19:59:00,
2014-01-30 15:00:00,36.4,36.4,30.17,ESE,113,0.0,0.0,100,0.00,SCT,,0.00,WeatherDisplay:10.37,2014-01-30 20:00:00,
2014-01-30 15:02:00,36.4,36.4,30.16,ESE,106,3.9,4.6,100,0.00,BKN,,0.00,WeatherDisplay:10.37,2014-01-30 20:02:00,
2014-01-30 15:03:00,36.5,36.5,30.16,ESE,123,1.7,4.6,100,0.00,BKN,,0.00,WeatherDisplay:10.37,2014-01-30 20:03:00,
2014-01-30 15:04:00,36.5,36.5,30.16,SE,125,1.2,5.0,100,0.00,BKN,,0.00,WeatherDisplay:10.37,2014-01-30 20:04:00,
2014-01-30 15:05:00,36.5,36.5,30.16,ESE,121,4.3,7.0,100,0.00,BKN,,0.00,WeatherDisplay:10.37,2014-01-30 20:05:00,
2014-01-30 15:07:00,36.4,36.4,30.16,ESE,113,4.0,6.9,100,0.00,BKN,,0.00,WeatherDisplay:10.37,2014-01-30 20:07:00,
2014-01-30 15:08:00,36.4,36.4,30.16,East,94,3.6,4.6,100,0.00,BKN,,0.00,WeatherDisplay:10.37,2014-01-30 20:08:00,
2014-01-30 15:09:00,36.3,36.3,30.16,East,97,3.9,4.6,100,0.00,BKN,,0.00,WeatherDisplay:10.37,2014-01-30 20:09:00,
2014-01-30 15:10:00,36.2,36.2,30.16,East,97,3.3,4.6,100,0.00,BKN,,0.00,WeatherDisplay:10.37,2014-01-30 20:10:00,
2014-01-30 15:13:00,35.9,35.9,30.16,South,182,1.8,3.5,100,0.00,BKN,,0.00,WeatherDisplay:10.37,2014-01-30 20:13:00,
2014-01-30 15:14:00,36.0,36.0,30.16,ESE,120,1.9,4.0,100,0.00,BKN,,0.00,WeatherDisplay:10.37,2014-01-30 20:14:00,
2014-01-30 15:15:00,36.1,36.1,30.16,ESE,120,0.7,4.6,100,0.00,BKN,,0.00,WeatherDisplay:10.37,2014-01-30 20:15:00,
2014-01-30 15:18:00,36.5,36.5,30.16,East,85,2.7,6.9,100,0.00,BKN,,0.00,WeatherDisplay:10.37,2014-01-30 20:18:00,
2014-01-30 15:19:00,36.7,36.7,30.16,ENE,68,0.3,4.6,100,0.00,BKN,,0.00,WeatherDisplay:10.37,2014-01-30 20:19:00,
2014-01-30 15:20:00,36.8,36.8,30.16,East,94,2.6,3.5,100,0.00,BKN,,0.00,WeatherDisplay:10.37,2014-01-30 20:20:00,
2014-01-30 15:21:00,36.9,36.9,30.16,East,94,2.8,3.5,100,0.00,BKN,,0.00,WeatherDisplay:10.37,2014-01-30 20:21:00,
2014-01-30 15:23:00,37.0,37.0,30.15,SE,131,4.9,4.9,100,0.00,BKN,,0.00,WeatherDisplay:10.37,2014-01-30 20:23:00,
2014-01-30 15:24:00,37.1,37.1,30.15,ESE,122,4.9,6.9,100,0.00,BKN,,0.00,WeatherDisplay:10.37,2014-01-30 20:24:00,
2014-01-30 15:25:00,37.1,37.1,30.15,ESE,115,5.3,8.1,100,0.00,BKN,,0.00,WeatherDisplay:10.37,2014-01-30 20:25:00,
2014-01-30 15:26:00,37.1,37.1,30.15,South,185,4.7,9.2,100,0.00,BKN,,0.00,WeatherDisplay:10.37,2014-01-30 20:26:00,
2014-01-30 15:29:00,37.1,37.1,30.15,SSE,150,1.7,2.0,100,0.00,BKN,,0.00,WeatherDisplay:10.37,2014-01-30 20:29:00,
2014-01-30 15:30:00,37.1,37.1,30.15,East,95,2.4,4.6,100,0.00,BKN,,0.00,WeatherDisplay:10.37,2014-01-30 20:30:00,
2014-01-30 15:32:00,37.2,37.2,30.15,SSW,203,0.2,3.5,100,0.00,BKN,,0.00,WeatherDisplay:10.37,2014-01-30 20:32:00,
2014-01-30 15:34:00,37.3,37.3,30.15,East,94,4.8,7.0,100,0.00,BKN,,0.00,WeatherDisplay:10.37,2014-01-30 20:34:00,
2014-01-30 15:35:00,37.3,37.3,30.15,ESE,108,5.6,8.1,100,0.00,BKN,,0.00,WeatherDisplay:10.37,2014-01-30 20:35:00,
2014-01-30 15:36:00,37.4,37.4,30.15,ESE,116,3.5,4.6,100,0.00,BKN,,0.00,WeatherDisplay:10.37,2014-01-30 20:36:00,
2014-01-30 15:37:00,37.5,37.5,30.15,ESE,116,0.7,3.5,100,0.00,BKN,,0.00,WeatherDisplay:10.37,2014-01-30 20:37:00,
2014-01-30 15:40:00,37.6,37.6,30.15,SSW,192,6.4,8.1,100,0.00,BKN,,0.00,WeatherDisplay:10.37,2014-01-30 20:40:00,
2014-01-30 15:41:00,37.4,37.4,30.15,South,186,2.9,8.1,100,0.00,BKN,,0.00,WeatherDisplay:10.37,2014-01-30 20:41:00,
2014-01-30 15:42:00,37.4,37.4,30.15,South,177,3.3,5.0,100,0.00,BKN,,0.00,WeatherDisplay:10.37,2014-01-30 20:42:00,
2014-01-30 15:45:00,37.5,37.5,30.14,ESE,112,1.6,3.5,100,0.00,BKN,,0.00,WeatherDisplay:10.37,2014-01-30 20:45:00,
2014-01-30 15:46:00,37.6,37.6,30.15,SE,133,0.0,2.3,100,0.00,BKN,,0.00,WeatherDisplay:10.37,2014-01-30 20:46:00,
2014-01-30 15:47:00,37.7,37.7,30.14,SE,126,0.5,3.5,100,0.00,BKN,,0.00,WeatherDisplay:10.37,2014-01-30 20:47:00,
2014-01-30 15:50:00,37.7,37.7,30.15,South,190,2.6,4.6,100,0.00,BKN,,0.00,WeatherDisplay:10.37,2014-01-30 20:50:00,
2014-01-30 15:51:00,37.8,37.8,30.14,SSW,204,2.4,4.6,100,0.00,BKN,,0.00,WeatherDisplay:10.37,2014-01-30 20:51:00,
2014-01-30 15:52:00,37.8,37.8,30.14,South,190,2.6,4.6,100,0.00,BKN,,0.00,WeatherDisplay:10.37,2014-01-30 20:52:00,
2014-01-30 15:55:00,37.8,37.8,30.14,SSW,208,0.0,2.3,100,0.00,BKN,,0.00,WeatherDisplay:10.37,2014-01-30 20:55:00,
2014-01-30 15:56:00,37.8,37.8,30.14,SW,236,4.1,5.8,100,0.00,BKN,,0.00,WeatherDisplay:10.37,2014-01-30 20:56:00,
2014-01-30 15:57:00,37.8,37.8,30.14,SW,231,4.1,5.8,100,0.00,BKN,,0.00,WeatherDisplay:10.37,2014-01-30 20:57:00,
2014-01-30 15:58:00,37.7,37.7,30.14,SSW,213,1.6,4.6,100,0.00,BKN,,0.00,WeatherDisplay:10.37,2014-01-30 20:58:00,
2014-01-30 16:00:00,37.6,37.6,30.14,South,185,5.4,10.4,100,0.00,BKN,,0.00,WeatherDisplay:10.37,2014-01-30 21:00:00,
2014-01-30 16:01:00,37.6,37.6,30.14,SSE,163,0.6,6.9,100,0.00,SCT,,0.00,WeatherDisplay:10.37,2014-01-30 21:01:00,
2014-01-30 16:02:00,37.6,37.6,30.14,SSE,157,0.9,3.5,100,0.00,SCT,,0.00,WeatherDisplay:10.37,2014-01-30 21:02:00,
2014-01-30 16:03:00,37.7,37.7,30.14,SSW,195,2.5,6.0,100,0.00,SCT,,0.00,WeatherDisplay:10.37,2014-01-30 21:03:00,
2014-01-30 16:05:00,37.7,37.7,30.14,South,182,4.6,4.6,100,0.00,SCT,,0.00,WeatherDisplay:10.37,2014-01-30 21:05:00,
2014-01-30 16:07:00,37.7,37.7,30.14,SSW,206,0.6,3.5,100,0.00,SCT,,0.00,WeatherDisplay:10.37,2014-01-30 21:07:00,
2014-01-30 16:08:00,37.7,37.7,30.14,SSW,207,3.0,7.0,100,0.00,SCT,,0.00,WeatherDisplay:10.37,2014-01-30 21:08:00,
2014-01-30 16:11:00,37.8,37.8,30.14,SSW,211,2.8,4.6,100,0.00,SCT,,0.00,WeatherDisplay:10.37,2014-01-30 21:11:00,
2014-01-30 16:12:00,37.7,37.7,30.14,SW,226,1.2,3.5,100,0.00,SCT,,0.00,WeatherDisplay:10.37,2014-01-30 21:12:00,
2014-01-30 16:13:00,37.6,37.6,30.14,SW,226,0.2,2.3,100,0.00,SCT,,0.00,WeatherDisplay:10.37,2014-01-30 21:13:00,
2014-01-30 16:16:00,37.7,37.7,30.13,SW,226,0.0,0.0,100,0.00,SCT,,0.00,WeatherDisplay:10.37,2014-01-30 21:16:00,
2014-01-30 16:17:00,37.9,37.9,30.13,SSW,194,1.1,3.5,100,0.00,SCT,,0.00,WeatherDisplay:10.37,2014-01-30 21:17:00,
2014-01-30 16:18:00,37.9,37.9,30.13,SSW,194,1.0,3.5,100,0.00,SCT,,0.00,WeatherDisplay:10.37,2014-01-30 21:18:00,
2014-01-30 16:21:00,38.2,38.2,30.14,SSW,192,0.0,0.0,100,0.00,SCT,,0.00,WeatherDisplay:10.37,2014-01-30 21:21:00,
2014-01-30 16:23:00,38.3,38.3,30.14,South,190,0.1,1.1,100,0.00,SCT,,0.00,WeatherDisplay:10.37,2014-01-30 21:23:00,
2014-01-30 16:24:00,38.4,38.4,30.13,SSW,193,1.2,5.8,100,0.00,SCT,,0.00,WeatherDisplay:10.37,2014-01-30 21:24:00,
2014-01-30 16:27:00,38.4,38.4,30.13,ESE,115,3.5,5.8,100,0.00,SCT,,0.00,WeatherDisplay:10.37,2014-01-30 21:27:00,
2014-01-30 16:28:00,38.5,38.5,30.13,ESE,115,2.1,4.0,100,0.00,SCT,,0.00,WeatherDisplay:10.37,2014-01-30 21:28:00,
2014-01-30 16:29:00,38.5,38.5,30.14,ESE,121,2.8,4.6,100,0.00,SCT,,0.00,WeatherDisplay:10.37,2014-01-30 21:29:00,
2014-01-30 16:32:00,38.3,38.3,30.13,ESE,122,5.4,9.2,100,0.00,SCT,,0.00,WeatherDisplay:10.37,2014-01-30 21:32:00,
2014-01-30 16:33:00,38.3,38.3,30.13,ESE,112,2.7,5.8,100,0.00,SCT,,0.00,WeatherDisplay:10.37,2014-01-30 21:33:00,
2014-01-30 16:34:00,38.3,38.3,30.13,ESE,115,3.9,4.6,100,0.00,SCT,,0.00,WeatherDisplay:10.37,2014-01-30 21:34:00,
2014-01-30 16:37:00,38.4,38.4,30.13,SSW,202,3.4,6.9,100,0.00,SCT,,0.00,WeatherDisplay:10.37,2014-01-30 21:37:00,
2014-01-30 16:38:00,38.5,38.5,30.13,SSW,200,3.4,5.0,100,0.00,SCT,,0.00,WeatherDisplay:10.37,2014-01-30 21:38:00,
2014-01-30 16:39:00,38.4,38.4,30.14,South,177,4.5,5.8,100,0.00,SCT,,0.00,WeatherDisplay:10.37,2014-01-30 21:39:00,
2014-01-30 16:40:00,38.4,38.4,30.14,South,176,4.0,5.8,100,0.00,SCT,,0.00,WeatherDisplay:10.37,2014-01-30 21:40:00,
2014-01-30 16:42:00,38.4,38.4,30.14,South,178,1.0,3.5,100,0.00,SCT,,0.00,WeatherDisplay:10.37,2014-01-30 21:42:00,
2014-01-30 16:43:00,38.5,38.5,30.14,South,180,3.2,4.6,100,0.00,SCT,,0.00,WeatherDisplay:10.37,2014-01-30 21:43:00,
2014-01-30 16:44:00,38.5,38.5,30.14,SSE,161,0.8,4.6,100,0.00,SCT,,0.00,WeatherDisplay:10.37,2014-01-30 21:44:00,
2014-01-30 16:45:00,38.5,38.5,30.14,SSE,147,0.0,0.0,100,0.00,SCT,,0.00,WeatherDisplay:10.37,2014-01-30 21:45:00,
2014-01-30 16:47:00,38.5,38.5,30.14,South,169,0.5,3.5,100,0.00,SCT,,0.00,WeatherDisplay:10.37,2014-01-30 21:47:00,
2014-01-30 16:49:00,38.6,38.6,30.14,South,171,0.0,0.0,100,0.00,SCT,,0.00,WeatherDisplay:10.37,2014-01-30 21:49:00,
2014-01-30 16:50:00,38.6,38.6,30.14,South,190,0.3,5.0,100,0.00,SCT,,0.00,WeatherDisplay:10.37,2014-01-30 21:50:00,
2014-01-30 16:51:00,38.6,38.6,30.14,SSE,165,1.8,4.6,100,0.00,SCT,,0.00,WeatherDisplay:10.37,2014-01-30 21:51:00,
2014-01-30 16:52:00,38.6,38.6,30.14,South,183,0.7,4.0,100,0.00,SCT,,0.00,WeatherDisplay:10.37,2014-01-30 21:52:00,
2014-01-30 16:54:00,38.7,38.7,30.14,SSW,204,3.2,5.8,100,0.00,SCT,,0.00,WeatherDisplay:10.37,2014-01-30 21:54:00,
2014-01-30 16:55:00,38.7,38.7,30.14,SSW,203,2.9,4.6,100,0.00,SCT,,0.00,WeatherDisplay:10.37,2014-01-30 21:55:00,
2014-01-30 16:56:00,38.7,38.7,30.14,SE,125,0.8,5.0,100,0.00,SCT,,0.00,WeatherDisplay:10.37,2014-01-30 21:56:00,
2014-01-30 16:57:00,38.7,38.7,30.13,ESE,122,3.4,4.6,100,0.00,SCT,,0.00,WeatherDisplay:10.37,2014-01-30 21:57:00,
2014-01-30 17:00:00,38.7,38.7,30.13,ESE,118,3.8,4.6,100,0.00,SCT,,0.00,WeatherDisplay:10.37,2014-01-30 22:00:00,
2014-01-30 17:01:00,38.7,38.7,30.13,ESE,115,0.1,3.5,100,0.00,FEW,,0.00,WeatherDisplay:10.37,2014-01-30 22:01:00,
2014-01-30 17:02:00,38.7,38.7,30.13,ESE,116,0.0,1.1,100,0.00,FEW,,0.00,WeatherDisplay:10.37,2014-01-30 22:02:00,
2014-01-30 17:05:00,38.9,38.9,30.13,SE,136,0.2,1.1,100,0.00,FEW,,0.00,WeatherDisplay:10.37,2014-01-30 22:05:00,
2014-01-30 17:07:00,38.9,38.9,30.13,SE,137,0.0,0.0,100,0.00,FEW,,0.00,WeatherDisplay:10.37,2014-01-30 22:07:00,
2014-01-30 17:10:00,39.0,39.0,30.12,SE,137,0.0,0.0,100,0.00,FEW,,0.00,WeatherDisplay:10.37,2014-01-30 22:10:00,
2014-01-30 17:11:00,39.1,39.1,30.12,SE,136,0.0,0.0,100,0.00,FEW,,0.00,WeatherDisplay:10.37,2014-01-30 22:11:00,
2014-01-30 17:12:00,39.1,39.1,30.12,SE,128,0.3,2.0,100,0.00,FEW,,0.00,WeatherDisplay:10.37,2014-01-30 22:12:00,
2014-01-30 17:13:00,39.1,39.1,30.12,SE,125,2.3,4.6,100,0.00,FEW,,0.00,WeatherDisplay:10.37,2014-01-30 22:13:00,
2014-01-30 17:15:00,39.1,39.1,30.12,SE,128,2.2,4.6,100,0.00,FEW,,0.00,WeatherDisplay:10.37,2014-01-30 22:15:00,
2014-01-30 17:16:00,39.1,39.1,30.12,SE,130,3.0,4.6,100,0.00,FEW,,0.00,WeatherDisplay:10.37,2014-01-30 22:16:00,
2014-01-30 17:17:00,39.0,39.0,30.12,SE,126,1.9,4.6,100,0.00,FEW,,0.00,WeatherDisplay:10.37,2014-01-30 22:17:00,
2014-01-30 17:18:00,39.0,39.0,30.12,SE,126,1.4,3.5,100,0.00,FEW,,0.00,WeatherDisplay:10.37,2014-01-30 22:18:00,
2014-01-30 17:21:00,39.1,39.1,30.12,SE,126,0.0,0.0,100,0.00,FEW,,0.00,WeatherDisplay:10.37,2014-01-30 22:21:00,
2014-01-30 17:22:00,39.1,39.1,30.12,SE,125,0.0,0.0,100,0.00,FEW,,0.00,WeatherDisplay:10.37,2014-01-30 22:22:00,
2014-01-30 17:23:00,39.2,39.2,30.13,SE,125,0.0,0.0,100,0.00,FEW,,0.00,WeatherDisplay:10.37,2014-01-30 22:23:00,
2014-01-30 17:27:00,39.4,39.4,30.13,SE,125,0.0,0.0,100,0.00,FEW,,0.00,WeatherDisplay:10.37,2014-01-30 22:27:00,
2014-01-30 17:28:00,39.4,39.4,30.12,SE,125,0.0,0.0,100,0.00,FEW,,0.00,WeatherDisplay:10.37,2014-01-30 22:28:00,
2014-01-30 17:32:00,39.4,39.4,30.12,SE,125,0.0,0.0,100,0.00,FEW,,0.00,WeatherDisplay:10.37,2014-01-30 22:32:00,
2014-01-30 17:33:00,39.4,39.4,30.12,SE,125,0.0,0.0,100,0.00,FEW,,0.00,WeatherDisplay:10.37,2014-01-30 22:33:00,
2014-01-30 17:34:00,39.5,39.5,30.12,SE,125,0.0,0.0,100,0.00,FEW,,0.00,WeatherDisplay:10.37,2014-01-30 22:34:00,
2014-01-30 17:37:00,39.3,39.3,30.11,SE,125,0.0,0.0,100,0.00,FEW,,0.00,WeatherDisplay:10.37,2014-01-30 22:37:00,
2014-01-30 17:38:00,39.2,39.2,30.11,SE,125,0.0,0.0,100,0.00,FEW,,0.00,WeatherDisplay:10.37,2014-01-30 22:38:00,
2014-01-30 17:39:00,39.0,39.0,30.11,SE,126,0.5,1.0,100,0.00,FEW,,0.00,WeatherDisplay:10.37,2014-01-30 22:39:00,
2014-01-30 17:42:00,38.4,38.4,30.12,SE,126,0.0,0.0,100,0.00,FEW,,0.00,WeatherDisplay:10.37,2014-01-30 22:42:00,
2014-01-30 17:43:00,38.3,38.3,30.11,SE,125,0.0,0.0,100,0.00,FEW,,0.00,WeatherDisplay:10.37,2014-01-30 22:43:00,
2014-01-30 17:44:00,38.1,38.1,30.11,SE,125,0.0,0.0,100,0.00,FEW,,0.00,WeatherDisplay:10.37,2014-01-30 22:44:00,
2014-01-30 17:47:00,37.6,37.6,30.11,SE,125,0.0,0.0,100,0.00,FEW,,0.00,WeatherDisplay:10.37,2014-01-30 22:47:00,
2014-01-30 17:48:00,37.6,37.6,30.11,SE,125,0.0,0.0,100,0.00,FEW,,0.00,WeatherDisplay:10.37,2014-01-30 22:48:00,
2014-01-30 17:49:00,37.4,37.4,30.11,SE,125,0.0,0.0,100,0.00,FEW,,0.00,WeatherDisplay:10.37,2014-01-30 22:49:00,
2014-01-30 17:52:00,36.9,36.9,30.11,SE,125,0.0,0.0,100,0.00,FEW,,0.00,WeatherDisplay:10.37,2014-01-30 22:52:00,
2014-01-30 17:53:00,36.8,36.8,30.11,SE,125,0.0,0.0,100,0.00,FEW,,0.00,WeatherDisplay:10.37,2014-01-30 22:53:00,
2014-01-30 17:54:00,36.7,36.7,30.11,SE,125,0.0,0.0,100,0.00,FEW,,0.00,WeatherDisplay:10.37,2014-01-30 22:54:00,
2014-01-30 17:57:00,36.2,36.2,30.12,SE,125,0.0,0.0,100,0.00,FEW,,0.00,WeatherDisplay:10.37,2014-01-30 22:57:00,
2014-01-30 17:58:00,36.1,36.1,30.12,SE,125,0.0,0.0,100,0.00,FEW,,0.00,WeatherDisplay:10.37,2014-01-30 22:58:00,
2014-01-30 17:59:00,35.9,35.9,30.12,SE,125,0.0,0.0,100,0.00,FEW,,0.00,WeatherDisplay:10.37,2014-01-30 22:59:00,
2014-01-30 18:02:00,35.3,35.3,30.12,SE,125,1.2,1.2,100,0.00,FEW,,0.00,WeatherDisplay:10.37,2014-01-30 23:02:00,
2014-01-30 18:03:00,35.2,35.2,30.12,SE,125,1.5,2.3,100,0.00,FEW,,0.00,WeatherDisplay:10.37,2014-01-30 23:03:00,
2014-01-30 18:04:00,34.9,34.9,30.12,SE,125,0.0,2.3,100,0.00,FEW,,0.00,WeatherDisplay:10.37,2014-01-30 23:04:00,
2014-01-30 18:07:00,34.6,34.6,30.13,SE,125,0.0,0.0,100,0.00,FEW,,0.00,WeatherDisplay:10.37,2014-01-30 23:07:00,
2014-01-30 18:08:00,34.5,34.5,30.13,SE,125,0.0,0.0,100,0.00,FEW,,0.00,WeatherDisplay:10.37,2014-01-30 23:08:00,
2014-01-30 18:09:00,34.3,34.3,30.13,SE,125,0.0,0.0,100,0.00,FEW,,0.00,WeatherDisplay:10.37,2014-01-30 23:09:00,
2014-01-30 18:13:00,33.9,33.9,30.13,SE,125,0.0,0.0,100,0.00,FEW,,0.00,WeatherDisplay:10.37,2014-01-30 23:13:00,
2014-01-30 18:14:00,33.9,33.9,30.13,SE,126,0.0,0.0,100,0.00,FEW,,0.00,WeatherDisplay:10.37,2014-01-30 23:14:00,
2014-01-30 18:15:00,33.9,33.9,30.13,SE,126,0.0,0.0,100,0.00,FEW,,0.00,WeatherDisplay:10.37,2014-01-30 23:15:00,
2014-01-30 18:18:00,33.9,33.9,30.14,SE,125,0.0,0.0,100,0.00,FEW,,0.00,WeatherDisplay:10.37,2014-01-30 23:18:00,
2014-01-30 18:19:00,33.7,33.7,30.14,SE,126,0.0,0.0,100,0.00,FEW,,0.00,WeatherDisplay:10.37,2014-01-30 23:19:00,
2014-01-30 18:20:00,33.7,33.7,30.14,SE,125,0.0,0.0,100,0.00,FEW,,0.00,WeatherDisplay:10.37,2014-01-30 23:20:00,
2014-01-30 18:23:00,33.4,33.4,30.14,SE,125,0.0,0.0,100,0.00,FEW,,0.00,WeatherDisplay:10.37,2014-01-30 23:23:00,
2014-01-30 18:24:00,33.5,33.5,30.14,SE,125,0.0,0.0,100,0.00,FEW,,0.00,WeatherDisplay:10.37,2014-01-30 23:24:00,
2014-01-30 18:25:00,33.5,33.5,30.14,SE,125,0.0,0.0,100,0.00,FEW,,0.00,WeatherDisplay:10.37,2014-01-30 23:25:00,
2014-01-30 18:28:00,33.6,33.6,30.14,SE,126,0.0,0.0,100,0.00,FEW,,0.00,WeatherDisplay:10.37,2014-01-30 23:28:00,
2014-01-30 18:29:00,33.6,33.6,30.14,SE,125,0.0,0.0,100,0.00,FEW,,0.00,WeatherDisplay:10.37,2014-01-30 23:29:00,
2014-01-30 18:30:00,33.6,33.6,30.14,SE,125,0.0,0.0,100,0.00,FEW,,0.00,WeatherDisplay:10.37,2014-01-30 23:30:00,
2014-01-30 18:31:00,33.6,33.6,30.14,SE,125,0.0,0.0,100,0.00,FEW,,0.00,WeatherDisplay:10.37,2014-01-30 23:31:00,
2014-01-30 18:34:00,33.3,33.3,30.14,SE,125,0.0,0.0,100,0.00,FEW,,0.00,WeatherDisplay:10.37,2014-01-30 23:34:00,
2014-01-30 18:35:00,33.2,33.2,30.14,SE,126,0.0,0.0,100,0.00,FEW,,0.00,WeatherDisplay:10.37,2014-01-30 23:35:00,
2014-01-30 18:36:00,33.1,33.1,30.14,SE,125,0.0,0.0,100,0.00,FEW,,0.00,WeatherDisplay:10.37,2014-01-30 23:36:00,
2014-01-30 18:39:00,32.9,32.9,30.15,SE,125,0.0,0.0,100,0.00,FEW,,0.00,WeatherDisplay:10.37,2014-01-30 23:39:00,
2014-01-30 18:40:00,32.7,32.7,30.15,SE,125,0.0,0.0,100,0.00,FEW,,0.00,WeatherDisplay:10.37,2014-01-30 23:40:00,
2014-01-30 18:41:00,32.6,32.6,30.15,SE,125,0.0,0.0,100,0.00,FEW,,0.00,WeatherDisplay:10.37,2014-01-30 23:41:00,
2014-01-30 18:42:00,32.6,32.6,30.15,SE,125,0.0,0.0,100,0.00,FEW,,0.00,WeatherDisplay:10.37,2014-01-30 23:42:00,
2014-01-30 18:44:00,32.5,32.5,30.15,SE,125,0.0,0.0,100,0.00,FEW,,0.00,WeatherDisplay:10.37,2014-01-30 23:44:00,
2014-01-30 18:45:00,32.5,32.5,30.15,SE,126,0.0,0.0,100,0.00,FEW,,0.00,WeatherDisplay:10.37,2014-01-30 23:45:00,
2014-01-30 18:46:00,32.5,32.5,30.15,SE,125,0.0,0.0,100,0.00,FEW,,0.00,WeatherDisplay:10.37,2014-01-30 23:46:00,
2014-01-30 18:47:00,32.6,32.6,30.15,SE,125,0.0,0.0,100,0.00,FEW,,0.00,WeatherDisplay:10.37,2014-01-30 23:47:00,
2014-01-30 18:49:00,32.5,32.5,30.15,SE,125,0.0,0.0,100,0.00,FEW,,0.00,WeatherDisplay:10.37,2014-01-30 23:49:00,
2014-01-30 18:50:00,32.5,32.5,30.15,SE,125,0.0,0.0,100,0.00,FEW,,0.00,WeatherDisplay:10.37,2014-01-30 23:50:00,
2014-01-30 18:51:00,32.4,32.4,30.15,SE,125,0.0,0.0,100,0.00,FEW,,0.00,WeatherDisplay:10.37,2014-01-30 23:51:00,
2014-01-30 18:53:00,32.2,32.2,30.15,SE,126,0.0,0.0,100,0.00,FEW,,0.00,WeatherDisplay:10.37,2014-01-30 23:53:00,
2014-01-30 18:54:00,32.0,32.0,30.15,SE,125,0.0,0.0,100,0.00,FEW,,0.00,WeatherDisplay:10.37,2014-01-30 23:54:00,
2014-01-30 18:55:00,31.9,31.9,30.15,SE,125,0.0,0.0,100,0.00,FEW,,0.00,WeatherDisplay:10.37,2014-01-30 23:55:00,
2014-01-30 18:56:00,31.6,31.6,30.15,SE,125,0.0,0.0,100,0.00,FEW,,0.00,WeatherDisplay:10.37,2014-01-30 23:56:00,
2014-01-30 18:57:00,31.5,31.5,30.15,SE,125,0.0,0.0,100,0.00,FEW,,0.00,WeatherDisplay:10.37,2014-01-30 23:57:00,
2014-01-30 18:59:00,31.4,31.4,30.15,SE,125,0.0,0.0,100,0.00,FEW,,0.00,WeatherDisplay:10.37,2014-01-30 23:59:00,
2014-01-30 19:00:00,31.4,31.4,30.15,SE,125,0.0,0.0,100,0.00,FEW,,0.00,WeatherDisplay:10.37,2014-01-31 00:00:00,
2014-01-30 19:01:00,31.4,31.4,30.15,SE,125,0.0,0.0,100,0.00,FEW,,0.00,WeatherDisplay:10.37,2014-01-31 00:01:00,
2014-01-30 19:02:00,31.3,31.3,30.15,SE,125,0.0,0.0,100,0.00,FEW,,0.00,WeatherDisplay:10.37,2014-01-31 00:02:00,
2014-01-30 19:04:00,31.4,31.4,30.16,SE,125,0.0,0.0,100,0.00,FEW,,0.00,WeatherDisplay:10.37,2014-01-31 00:04:00,
2014-01-30 19:05:00,31.4,31.4,30.16,SE,125,0.0,0.0,100,0.00,FEW,,0.00,WeatherDisplay:10.37,2014-01-31 00:05:00,
2014-01-30 19:06:00,31.4,31.4,30.15,SE,125,0.0,0.0,100,0.00,FEW,,0.00,WeatherDisplay:10.37,2014-01-31 00:06:00,
2014-01-30 19:07:00,31.4,31.4,30.15,SE,126,0.0,0.0,100,0.00,FEW,,0.00,WeatherDisplay:10.37,2014-01-31 00:07:00,
2014-01-30 19:09:00,31.5,31.5,30.16,SE,125,0.0,0.0,100,0.00,FEW,,0.00,WeatherDisplay:10.37,2014-01-31 00:09:00,
2014-01-30 19:10:00,31.5,31.5,30.16,SE,125,0.0,0.0,100,0.00,FEW,,0.00,WeatherDisplay:10.37,2014-01-31 00:10:00,
2014-01-30 19:11:00,31.5,31.5,30.16,SE,125,0.0,0.0,100,0.00,FEW,,0.00,WeatherDisplay:10.37,2014-01-31 00:11:00,
2014-01-30 19:12:00,31.5,31.5,30.16,SE,126,0.0,0.0,100,0.00,FEW,,0.00,WeatherDisplay:10.37,2014-01-31 00:12:00,
2014-01-30 19:14:00,31.7,31.7,30.16,SE,125,0.0,0.0,100,0.00,FEW,,0.00,WeatherDisplay:10.37,2014-01-31 00:14:00,
2014-01-30 19:15:00,31.7,31.7,30.16,SE,126,0.0,0.0,100,0.00,FEW,,0.00,WeatherDisplay:10.37,2014-01-31 00:15:00,
2014-01-30 19:16:00,31.7,31.7,30.16,SE,125,0.0,0.0,100,0.00,FEW,,0.00,WeatherDisplay:10.37,2014-01-31 00:16:00,
2014-01-30 19:17:00,31.8,31.8,30.16,SE,125,0.0,0.0,100,0.00,FEW,,0.00,WeatherDisplay:10.37,2014-01-31 00:17:00,
2014-01-30 19:19:00,31.3,31.3,30.16,SE,125,0.0,0.0,100,0.00,FEW,,0.00,WeatherDisplay:10.37,2014-01-31 00:19:00,
2014-01-30 19:20:00,31.2,31.2,30.16,SE,125,0.0,0.0,100,0.00,FEW,,0.00,WeatherDisplay:10.37,2014-01-31 00:20:00,
2014-01-30 19:21:00,31.2,31.2,30.16,SE,125,0.0,0.0,100,0.00,FEW,,0.00,WeatherDisplay:10.37,2014-01-31 00:21:00,
2014-01-30 19:22:00,31.2,31.2,30.17,SE,125,0.0,0.0,100,0.00,FEW,,0.00,WeatherDisplay:10.37,2014-01-31 00:22:00,
2014-01-30 19:25:00,31.3,31.3,30.16,SE,125,0.0,0.0,100,0.00,FEW,,0.00,WeatherDisplay:10.37,2014-01-31 00:25:00,
2014-01-30 19:26:00,31.3,31.3,30.16,SE,125,0.0,0.0,100,0.00,FEW,,0.00,WeatherDisplay:10.37,2014-01-31 00:26:00,
2014-01-30 19:27:00,31.3,31.3,30.16,SE,125,0.0,0.0,100,0.00,FEW,,0.00,WeatherDisplay:10.37,2014-01-31 00:27:00,
2014-01-30 19:30:00,31.0,31.0,30.17,SE,125,0.0,0.0,100,0.00,FEW,,0.00,WeatherDisplay:10.37,2014-01-31 00:30:00,
2014-01-30 19:31:00,30.9,30.9,30.17,SE,126,0.0,0.0,100,0.00,FEW,,0.00,WeatherDisplay:10.37,2014-01-31 00:31:00,
2014-01-30 19:32:00,30.9,30.9,30.17,SE,125,0.0,0.0,100,0.00,FEW,,0.00,WeatherDisplay:10.37,2014-01-31 00:32:00,
2014-01-30 19:33:00,31.0,31.0,30.17,SE,125,0.0,0.0,100,0.00,FEW,,0.00,WeatherDisplay:10.37,2014-01-31 00:33:00,
2014-01-30 19:35:00,31.1,31.1,30.16,SE,125,0.0,0.0,100,0.00,FEW,,0.00,WeatherDisplay:10.37,2014-01-31 00:35:00,
2014-01-30 19:36:00,31.2,31.2,30.16,SE,125,0.0,0.0,100,0.00,FEW,,0.00,WeatherDisplay:10.37,2014-01-31 00:36:00,
2014-01-30 19:37:00,31.2,31.2,30.16,SE,125,0.0,0.0,100,0.00,FEW,,0.00,WeatherDisplay:10.37,2014-01-31 00:37:00,
2014-01-30 19:38:00,31.1,31.1,30.16,SE,125,0.0,0.0,100,0.00,FEW,,0.00,WeatherDisplay:10.37,2014-01-31 00:38:00,
2014-01-30 19:40:00,31.1,31.1,30.17,SE,125,0.0,0.0,100,0.00,FEW,,0.00,WeatherDisplay:10.37,2014-01-31 00:40:00,
2014-01-30 19:41:00,31.1,31.1,30.16,SE,125,0.0,0.0,100,0.00,FEW,,0.00,WeatherDisplay:10.37,2014-01-31 00:41:00,
2014-01-30 19:42:00,31.1,31.1,30.17,SE,125,0.0,0.0,100,0.00,FEW,,0.00,WeatherDisplay:10.37,2014-01-31 00:42:00,
2014-01-30 19:43:00,31.1,31.1,30.17,SE,126,0.0,0.0,100,0.00,FEW,,0.00,WeatherDisplay:10.37,2014-01-31 00:43:00,
2014-01-30 19:45:00,31.1,31.1,30.16,SE,125,0.0,0.0,100,0.00,FEW,,0.00,WeatherDisplay:10.37,2014-01-31 00:45:00,
2014-01-30 19:46:00,31.1,31.1,30.16,SE,125,0.0,0.0,100,0.00,FEW,,0.00,WeatherDisplay:10.37,2014-01-31 00:46:00,
2014-01-30 19:47:00,31.1,31.1,30.16,SE,125,0.0,0.0,100,0.00,FEW,,0.00,WeatherDisplay:10.37,2014-01-31 00:47:00,
2014-01-30 19:48:00,31.1,31.1,30.16,SE,126,0.0,0.0,100,0.00,FEW,,0.00,WeatherDisplay:10.37,2014-01-31 00:48:00,
2014-01-30 19:50:00,31.0,31.0,30.16,SE,125,0.0,0.0,100,0.00,FEW,,0.00,WeatherDisplay:10.37,2014-01-31 00:50:00,
2014-01-30 19:51:00,31.0,31.0,30.16,SE,125,0.0,0.0,100,0.00,FEW,,0.00,WeatherDisplay:10.37,2014-01-31 00:51:00,
2014-01-30 19:52:00,31.0,31.0,30.16,SE,125,0.0,0.0,100,0.00,FEW,,0.00,WeatherDisplay:10.37,2014-01-31 00:52:00,
2014-01-30 19:53:00,31.0,31.0,30.16,SE,125,0.0,0.0,100,0.00,FEW,,0.00,WeatherDisplay:10.37,2014-01-31 00:53:00,
2014-01-30 19:54:00,30.9,30.9,30.16,SE,125,0.0,0.0,100,0.00,FEW,,0.00,WeatherDisplay:10.37,2014-01-31 00:54:00,
2014-01-30 19:56:00,30.8,30.8,30.16,SE,125,0.0,0.0,100,0.00,FEW,,0.00,WeatherDisplay:10.37,2014-01-31 00:56:00,
2014-01-30 19:57:00,30.7,30.7,30.16,SE,125,0.0,0.0,100,0.00,FEW,,0.00,WeatherDisplay:10.37,2014-01-31 00:57:00,
2014-01-30 19:58:00,30.7,30.7,30.16,SE,125,0.0,0.0,100,0.00,FEW,,0.00,WeatherDisplay:10.37,2014-01-31 00:58:00,
2014-01-30 19:59:00,30.7,30.7,30.16,SE,125,0.0,0.0,100,0.00,FEW,,0.00,WeatherDisplay:10.37,2014-01-31 00:59:00,
2014-01-30 20:01:00,30.5,30.5,30.16,SE,125,0.0,0.0,100,0.00,SCT,,0.00,WeatherDisplay:10.37,2014-01-31 01:01:00,
2014-01-30 20:02:00,30.5,30.5,30.16,SE,126,0.0,0.0,100,0.00,SCT,,0.00,WeatherDisplay:10.37,2014-01-31 01:02:00,
2014-01-30 20:03:00,30.5,30.5,30.16,SE,125,0.0,0.0,100,0.00,SCT,,0.00,WeatherDisplay:10.37,2014-01-31 01:03:00,
2014-01-30 20:04:00,30.4,30.4,30.16,SE,125,0.0,0.0,100,0.00,SCT,,0.00,WeatherDisplay:10.37,2014-01-31 01:04:00,
2014-01-30 20:07:00,30.4,30.4,30.16,SE,125,0.0,0.0,100,0.00,SCT,,0.00,WeatherDisplay:10.37,2014-01-31 01:07:00,
2014-01-30 20:08:00,30.4,30.4,30.16,SE,125,0.0,0.0,100,0.00,SCT,,0.00,WeatherDisplay:10.37,2014-01-31 01:08:00,
2014-01-30 20:09:00,30.2,30.2,30.16,SE,125,0.0,0.0,100,0.00,SCT,,0.00,WeatherDisplay:10.37,2014-01-31 01:09:00,
2014-01-30 20:12:00,30.1,30.1,30.16,SE,126,0.0,0.0,100,0.00,SCT,,0.00,WeatherDisplay:10.37,2014-01-31 01:12:00,
2014-01-30 20:13:00,30.1,30.1,30.16,SE,126,0.0,0.0,100,0.00,SCT,,0.00,WeatherDisplay:10.37,2014-01-31 01:13:00,
2014-01-30 20:15:00,30.2,30.2,30.16,SE,126,0.0,0.0,100,0.00,SCT,,0.00,WeatherDisplay:10.37,2014-01-31 01:15:00,
2014-01-30 20:17:00,30.1,30.1,30.16,SE,142,0.2,2.3,100,0.00,SCT,,0.00,WeatherDisplay:10.37,2014-01-31 01:17:00,
2014-01-30 20:18:00,30.0,30.0,30.16,SSE,151,0.3,2.3,100,0.00,SCT,,0.00,WeatherDisplay:10.37,2014-01-31 01:18:00,
2014-01-30 20:19:00,29.7,29.7,30.16,SSW,206,2.7,3.5,100,0.00,SCT,,0.00,WeatherDisplay:10.37,2014-01-31 01:19:00,
2014-01-30 20:20:00,29.5,29.5,30.16,SSW,207,2.5,3.5,100,0.00,SCT,,0.00,WeatherDisplay:10.37,2014-01-31 01:20:00,
2014-01-30 20:22:00,29.1,29.1,30.16,SW,225,2.0,3.5,100,0.00,SCT,,0.00,WeatherDisplay:10.37,2014-01-31 01:22:00,
2014-01-30 20:23:00,29.1,29.1,30.16,SW,225,1.9,3.5,100,0.00,SCT,,0.00,WeatherDisplay:10.37,2014-01-31 01:23:00,
2014-01-30 20:24:00,29.2,29.2,30.16,SW,225,1.4,2.3,100,0.00,SCT,,0.00,WeatherDisplay:10.37,2014-01-31 01:24:00,
2014-01-30 20:25:00,29.3,29.3,30.17,SW,225,1.7,2.3,100,0.00,SCT,,0.00,WeatherDisplay:10.37,2014-01-31 01:25:00,
2014-01-30 20:27:00,29.4,29.4,30.16,SW,225,0.2,2.3,100,0.00,SCT,,0.00,WeatherDisplay:10.37,2014-01-31 01:27:00,
2014-01-30 20:28:00,29.5,29.5,30.16,SW,225,0.0,0.0,100,0.00,SCT,,0.00,WeatherDisplay:10.37,2014-01-31 01:28:00,
2014-01-30 20:29:00,29.5,29.5,30.16,SW,225,1.3,2.3,100,0.00,SCT,,0.00,WeatherDisplay:10.37,2014-01-31 01:29:00,
2014-01-30 20:30:00,29.6,29.6,30.16,SW,225,1.6,2.3,100,0.00,SCT,,0.00,WeatherDisplay:10.37,2014-01-31 01:30:00,
2014-01-30 20:31:00,29.6,29.6,30.16,SW,225,2.0,3.5,100,0.00,SCT,,0.00,WeatherDisplay:10.37,2014-01-31 01:31:00,
2014-01-30 20:32:00,29.7,29.7,30.16,SW,225,2.3,3.5,100,0.00,SCT,,0.00,WeatherDisplay:10.37,2014-01-31 01:32:00,
2014-01-30 20:33:00,29.7,29.7,30.16,SW,225,2.3,3.5,100,0.00,SCT,,0.00,WeatherDisplay:10.37,2014-01-31 01:33:00,
2014-01-30 20:34:00,29.7,29.7,30.16,SW,225,1.2,3.5,100,0.00,SCT,,0.00,WeatherDisplay:10.37,2014-01-31 01:34:00,
2014-01-30 20:35:00,29.7,29.7,30.16,SW,225,0.2,2.3,100,0.00,SCT,,0.00,WeatherDisplay:10.37,2014-01-31 01:35:00,
2014-01-30 20:36:00,29.8,29.8,30.16,SW,225,0.0,1.1,100,0.00,SCT,,0.00,WeatherDisplay:10.37,2014-01-31 01:36:00,
2014-01-30 20:37:00,29.9,29.9,30.16,SW,225,0.0,0.0,100,0.00,SCT,,0.00,WeatherDisplay:10.37,2014-01-31 01:37:00,
2014-01-30 20:38:00,29.9,29.9,30.16,SW,225,0.0,0.0,100,0.00,SCT,,0.00,WeatherDisplay:10.37,2014-01-31 01:38:00,
2014-01-30 20:40:00,29.9,29.9,30.16,SW,225,0.0,0.0,100,0.00,SCT,,0.00,WeatherDisplay:10.37,2014-01-31 01:40:00,
2014-01-30 20:41:00,29.9,29.9,30.16,SW,225,0.0,0.0,100,0.00,SCT,,0.00,WeatherDisplay:10.37,2014-01-31 01:41:00,
2014-01-30 20:43:00,29.9,29.9,30.16,SW,225,0.4,1.1,100,0.00,SCT,,0.00,WeatherDisplay:10.37,2014-01-31 01:43:00,
2014-01-30 20:45:00,29.9,29.9,30.16,SW,225,0.0,0.0,100,0.00,SCT,,0.00,WeatherDisplay:10.37,2014-01-31 01:45:00,
2014-01-30 20:46:00,29.9,29.9,30.16,SW,224,0.0,0.0,100,0.00,SCT,,0.00,WeatherDisplay:10.37,2014-01-31 01:46:00,
2014-01-30 20:48:00,29.8,29.8,30.16,SW,225,0.0,0.0,100,0.00,SCT,,0.00,WeatherDisplay:10.37,2014-01-31 01:48:00,
2014-01-30 20:50:00,29.6,29.6,30.16,SW,225,0.0,0.0,100,0.00,SCT,,0.00,WeatherDisplay:10.37,2014-01-31 01:50:00,
2014-01-30 20:51:00,29.6,29.6,30.16,SW,225,0.0,0.0,100,0.00,SCT,,0.00,WeatherDisplay:10.37,2014-01-31 01:51:00,
2014-01-30 20:52:00,29.6,29.6,30.16,SW,225,0.0,0.0,100,0.00,SCT,,0.00,WeatherDisplay:10.37,2014-01-31 01:52:00,
2014-01-30 20:53:00,29.6,29.6,30.16,SW,225,0.0,0.0,100,0.00,SCT,,0.00,WeatherDisplay:10.37,2014-01-31 01:53:00,
2014-01-30 20:54:00,29.6,29.6,30.16,SW,225,0.0,0.0,100,0.00,SCT,,0.00,WeatherDisplay:10.37,2014-01-31 01:54:00,
2014-01-30 20:55:00,29.5,29.5,30.16,SW,225,0.0,0.0,100,0.00,SCT,,0.00,WeatherDisplay:10.37,2014-01-31 01:55:00,
2014-01-30 20:57:00,29.5,29.5,30.16,SW,225,1.1,2.3,100,0.00,SCT,,0.00,WeatherDisplay:10.37,2014-01-31 01:57:00,
2014-01-30 20:58:00,29.4,29.4,30.16,SW,224,2.0,2.3,100,0.00,SCT,,0.00,WeatherDisplay:10.37,2014-01-31 01:58:00,
2014-01-30 20:59:00,29.4,29.4,30.16,SW,225,1.6,3.5,100,0.00,SCT,,0.00,WeatherDisplay:10.37,2014-01-31 01:59:00,
2014-01-30 21:01:00,29.3,29.3,30.16,SW,224,0.4,1.1,100,0.00,BKN,,0.00,WeatherDisplay:10.37,2014-01-31 02:01:00,
2014-01-30 21:02:00,29.3,29.3,30.16,SW,225,0.0,0.0,100,0.00,BKN,,0.00,WeatherDisplay:10.37,2014-01-31 02:02:00,
2014-01-30 21:03:00,29.3,29.3,30.16,SW,225,0.0,0.0,100,0.00,BKN,,0.00,WeatherDisplay:10.37,2014-01-31 02:03:00,
2014-01-30 21:04:00,29.3,29.3,30.16,SW,225,0.0,0.0,100,0.00,BKN,,0.00,WeatherDisplay:10.37,2014-01-31 02:04:00,
2014-01-30 21:06:00,29.3,29.3,30.16,SW,225,0.0,0.0,100,0.00,BKN,,0.00,WeatherDisplay:10.37,2014-01-31 02:06:00,
2014-01-30 21:07:00,29.3,29.3,30.16,SW,225,0.0,0.0,100,0.00,BKN,,0.00,WeatherDisplay:10.37,2014-01-31 02:07:00,
2014-01-30 21:08:00,29.4,29.4,30.16,SW,225,0.0,0.0,100,0.00,BKN,,0.00,WeatherDisplay:10.37,2014-01-31 02:08:00,
2014-01-30 21:09:00,29.4,29.4,30.16,SW,225,0.0,0.0,100,0.00,BKN,,0.00,WeatherDisplay:10.37,2014-01-31 02:09:00,
2014-01-30 21:11:00,29.2,29.2,30.16,SW,225,0.1,1.0,100,0.00,BKN,,0.00,WeatherDisplay:10.37,2014-01-31 02:11:00,
2014-01-30 21:12:00,29.2,29.2,30.16,SW,225,0.9,2.3,100,0.00,BKN,,0.00,WeatherDisplay:10.37,2014-01-31 02:12:00,
2014-01-30 21:13:00,29.2,29.2,30.16,SW,225,0.1,2.3,100,0.00,BKN,,0.00,WeatherDisplay:10.37,2014-01-31 02:13:00,
2014-01-30 21:14:00,29.2,29.2,30.16,SW,224,0.0,0.0,100,0.00,BKN,,0.00,WeatherDisplay:10.37,2014-01-31 02:14:00,
2014-01-30 21:16:00,29.2,29.2,30.16,SW,225,0.0,0.0,100,0.00,BKN,,0.00,WeatherDisplay:10.37,2014-01-31 02:16:00,
2014-01-30 21:17:00,29.2,29.2,30.16,SW,225,0.0,0.0,100,0.00,BKN,,0.00,WeatherDisplay:10.37,2014-01-31 02:17:00,
2014-01-30 21:18:00,29.2,29.2,30.16,SW,225,0.0,0.0,100,0.00,BKN,,0.00,WeatherDisplay:10.37,2014-01-31 02:18:00,
2014-01-30 21:19:00,29.2,29.2,30.16,SW,225,0.0,0.0,100,0.00,BKN,,0.00,WeatherDisplay:10.37,2014-01-31 02:19:00,
2014-01-30 21:21:00,29.2,29.2,30.16,SW,225,0.0,0.0,100,0.00,BKN,,0.00,WeatherDisplay:10.37,2014-01-31 02:21:00,
2014-01-30 21:23:00,29.2,29.2,30.16,SW,225,0.0,0.0,100,0.00,BKN,,0.00,WeatherDisplay:10.37,2014-01-31 02:23:00,
2014-01-30 21:24:00,29.2,29.2,30.16,SW,225,0.0,0.0,100,0.00,BKN,,0.00,WeatherDisplay:10.37,2014-01-31 02:24:00,
2014-01-30 21:25:00,29.2,29.2,30.16,SW,225,0.0,0.0,100,0.00,BKN,,0.00,WeatherDisplay:10.37,2014-01-31 02:25:00,
2014-01-30 21:27:00,29.2,29.2,30.16,SW,225,0.0,0.0,100,0.00,BKN,,0.00,WeatherDisplay:10.37,2014-01-31 02:27:00,
2014-01-30 21:28:00,29.2,29.2,30.17,SW,225,0.0,0.0,100,0.00,BKN,,0.00,WeatherDisplay:10.37,2014-01-31 02:28:00,
2014-01-30 21:29:00,29.2,29.2,30.17,SW,225,0.0,0.0,100,0.00,BKN,,0.00,WeatherDisplay:10.37,2014-01-31 02:29:00,
2014-01-30 21:30:00,29.1,29.1,30.17,SW,225,0.0,0.0,100,0.00,BKN,,0.00,WeatherDisplay:10.37,2014-01-31 02:30:00,
2014-01-30 21:33:00,29.1,29.1,30.17,SW,225,0.0,0.0,100,0.00,BKN,,0.00,WeatherDisplay:10.37,2014-01-31 02:33:00,
2014-01-30 21:34:00,29.1,29.1,30.17,SW,225,0.0,0.0,100,0.00,BKN,,0.00,WeatherDisplay:10.37,2014-01-31 02:34:00,
2014-01-30 21:35:00,29.1,29.1,30.16,SW,225,0.0,0.0,100,0.00,BKN,,0.00,WeatherDisplay:10.37,2014-01-31 02:35:00,
2014-01-30 21:38:00,29.0,29.0,30.17,SW,224,0.2,1.1,100,0.00,BKN,,0.00,WeatherDisplay:10.37,2014-01-31 02:38:00,
2014-01-30 21:39:00,29.0,29.0,30.16,SW,225,0.0,1.1,100,0.00,BKN,,0.00,WeatherDisplay:10.37,2014-01-31 02:39:00,
2014-01-30 21:40:00,29.0,29.0,30.16,SW,225,0.0,0.0,100,0.00,BKN,,0.00,WeatherDisplay:10.37,2014-01-31 02:40:00,
2014-01-30 21:44:00,28.8,28.8,30.16,SW,225,0.0,0.0,100,0.00,BKN,,0.00,WeatherDisplay:10.37,2014-01-31 02:44:00,
2014-01-30 21:45:00,28.8,28.8,30.16,SW,225,0.0,0.0,100,0.00,BKN,,0.00,WeatherDisplay:10.37,2014-01-31 02:45:00,
2014-01-30 21:49:00,28.7,28.7,30.16,SW,225,0.0,0.0,100,0.00,BKN,,0.00,WeatherDisplay:10.37,2014-01-31 02:49:00,
2014-01-30 21:50:00,28.7,28.7,30.16,SW,225,0.0,0.0,100,0.00,BKN,,0.00,WeatherDisplay:10.37,2014-01-31 02:50:00,
2014-01-30 21:54:00,28.5,28.5,30.16,SW,225,0.0,0.0,100,0.00,BKN,,0.00,WeatherDisplay:10.37,2014-01-31 02:54:00,
2014-01-30 21:55:00,28.5,28.5,30.16,SW,224,0.0,0.0,100,0.00,BKN,,0.00,WeatherDisplay:10.37,2014-01-31 02:55:00,
2014-01-30 21:57:00,28.3,28.3,30.16,SW,225,0.0,0.0,100,0.00,BKN,,0.00,WeatherDisplay:10.37,2014-01-31 02:57:00,
2014-01-30 21:59:00,28.2,28.2,30.16,SW,225,0.0,0.0,100,0.00,BKN,,0.00,WeatherDisplay:10.37,2014-01-31 02:59:00,
2014-01-30 22:00:00,28.2,28.2,30.16,SW,225,0.0,0.0,100,0.00,BKN,,0.00,WeatherDisplay:10.37,2014-01-31 03:00:00,
2014-01-30 22:03:00,28.3,28.3,30.16,SW,224,0.0,0.0,100,0.00,BKN,,0.00,WeatherDisplay:10.37,2014-01-31 03:03:00,
2014-01-30 22:04:00,28.3,28.3,30.16,SW,225,0.0,0.0,100,0.00,BKN,,0.00,WeatherDisplay:10.37,2014-01-31 03:04:00,
2014-01-30 22:05:00,28.3,28.3,30.16,SW,225,0.0,0.0,100,0.00,BKN,,0.00,WeatherDisplay:10.37,2014-01-31 03:05:00,
2014-01-30 22:06:00,28.3,28.3,30.16,SW,225,0.0,0.0,100,0.00,BKN,,0.00,WeatherDisplay:10.37,2014-01-31 03:06:00,
2014-01-30 22:08:00,28.2,28.2,30.16,SW,225,1.4,2.3,100,0.00,BKN,,0.00,WeatherDisplay:10.37,2014-01-31 03:08:00,
2014-01-30 22:10:00,28.1,28.1,30.16,SW,225,0.0,1.1,100,0.00,BKN,,0.00,WeatherDisplay:10.37,2014-01-31 03:10:00,
2014-01-30 22:11:00,28.1,28.1,30.16,SW,225,0.0,0.0,100,0.00,BKN,,0.00,WeatherDisplay:10.37,2014-01-31 03:11:00,
2014-01-30 22:14:00,28.0,28.0,30.17,SW,225,0.0,0.0,100,0.00,BKN,,0.00,WeatherDisplay:10.37,2014-01-31 03:14:00,
2014-01-30 22:15:00,28.0,28.0,30.17,SW,225,0.0,0.0,100,0.00,BKN,,0.00,WeatherDisplay:10.37,2014-01-31 03:15:00,
2014-01-30 22:16:00,28.0,28.0,30.17,SW,225,0.0,0.0,100,0.00,BKN,,0.00,WeatherDisplay:10.37,2014-01-31 03:16:00,
2014-01-30 22:19:00,27.9,27.9,30.17,SW,225,0.0,0.0,100,0.00,BKN,,0.00,WeatherDisplay:10.37,2014-01-31 03:19:00,
2014-01-30 22:21:00,27.8,27.8,30.17,SW,225,0.0,0.0,100,0.00,BKN,,0.00,WeatherDisplay:10.37,2014-01-31 03:21:00,
2014-01-30 22:22:00,27.8,27.8,30.17,SW,224,0.0,0.0,100,0.00,BKN,,0.00,WeatherDisplay:10.37,2014-01-31 03:22:00,
2014-01-30 22:25:00,27.6,27.6,30.17,SW,225,0.0,0.0,100,0.00,BKN,,0.00,WeatherDisplay:10.37,2014-01-31 03:25:00,
2014-01-30 22:26:00,27.5,27.5,30.17,SW,225,0.0,0.0,100,0.00,BKN,,0.00,WeatherDisplay:10.37,2014-01-31 03:26:00,
2014-01-30 22:27:00,27.6,27.6,30.17,SW,225,0.0,0.0,100,0.00,BKN,,0.00,WeatherDisplay:10.37,2014-01-31 03:27:00,
2014-01-30 22:28:00,27.5,27.5,30.17,SW,225,0.0,0.0,100,0.00,BKN,,0.00,WeatherDisplay:10.37,2014-01-31 03:28:00,
2014-01-30 22:31:00,27.5,27.5,30.17,SW,224,0.0,0.0,100,0.00,BKN,,0.00,WeatherDisplay:10.37,2014-01-31 03:31:00,
2014-01-30 22:32:00,27.5,27.5,30.17,SW,225,0.0,0.0,100,0.00,BKN,,0.00,WeatherDisplay:10.37,2014-01-31 03:32:00,
2014-01-30 22:33:00,27.4,27.4,30.17,SW,225,0.0,0.0,100,0.00,BKN,,0.00,WeatherDisplay:10.37,2014-01-31 03:33:00,
2014-01-30 22:36:00,27.4,27.4,30.17,SW,225,0.0,0.0,100,0.00,BKN,,0.00,WeatherDisplay:10.37,2014-01-31 03:36:00,
2014-01-30 22:37:00,27.4,27.4,30.17,SW,225,0.0,0.0,100,0.00,BKN,,0.00,WeatherDisplay:10.37,2014-01-31 03:37:00,
2014-01-30 22:38:00,27.1,27.1,30.17,SW,225,0.0,0.0,100,0.00,BKN,,0.00,WeatherDisplay:10.37,2014-01-31 03:38:00,
2014-01-30 22:39:00,27.0,27.0,30.17,SW,225,0.0,0.0,100,0.00,BKN,,0.00,WeatherDisplay:10.37,2014-01-31 03:39:00,
2014-01-30 22:41:00,26.9,26.9,30.16,SW,225,0.0,0.0,100,0.00,BKN,,0.00,WeatherDisplay:10.37,2014-01-31 03:41:00,
2014-01-30 22:42:00,27.0,27.0,30.16,SW,225,0.0,0.0,100,0.00,BKN,,0.00,WeatherDisplay:10.37,2014-01-31 03:42:00,
2014-01-30 22:43:00,27.0,27.0,30.16,SW,224,0.0,0.0,100,0.00,BKN,,0.00,WeatherDisplay:10.37,2014-01-31 03:43:00,
2014-01-30 22:44:00,27.0,27.0,30.17,SW,225,0.0,0.0,100,0.00,BKN,,0.00,WeatherDisplay:10.37,2014-01-31 03:44:00,
2014-01-30 22:46:00,26.8,26.8,30.17,SW,225,0.0,0.0,100,0.00,BKN,,0.00,WeatherDisplay:10.37,2014-01-31 03:46:00,
2014-01-30 22:47:00,26.6,26.6,30.17,SW,225,0.0,0.0,100,0.00,BKN,,0.00,WeatherDisplay:10.37,2014-01-31 03:47:00,
2014-01-30 22:48:00,26.6,26.6,30.16,SW,225,0.0,0.0,100,0.00,BKN,,0.00,WeatherDisplay:10.37,2014-01-31 03:48:00,
2014-01-30 22:49:00,26.6,26.6,30.17,SW,225,0.0,0.0,100,0.00,BKN,,0.00,WeatherDisplay:10.37,2014-01-31 03:49:00,
2014-01-30 22:51:00,26.6,26.6,30.16,SW,225,0.0,0.0,100,0.00,BKN,,0.00,WeatherDisplay:10.37,2014-01-31 03:51:00,
2014-01-30 22:52:00,26.7,26.7,30.16,SW,225,0.0,0.0,100,0.00,BKN,,0.00,WeatherDisplay:10.37,2014-01-31 03:52:00,
2014-01-30 22:53:00,26.6,26.6,30.16,SW,225,0.0,0.0,100,0.00,BKN,,0.00,WeatherDisplay:10.37,2014-01-31 03:53:00,
2014-01-30 22:55:00,26.4,26.4,30.17,SW,225,0.0,0.0,100,0.00,BKN,,0.00,WeatherDisplay:10.37,2014-01-31 03:55:00,
2014-01-30 22:56:00,26.4,26.4,30.17,SW,225,0.0,0.0,100,0.00,BKN,,0.00,WeatherDisplay:10.37,2014-01-31 03:56:00,
2014-01-30 22:57:00,26.4,26.4,30.17,SW,225,0.0,0.0,100,0.00,BKN,,0.00,WeatherDisplay:10.37,2014-01-31 03:57:00,
2014-01-30 22:58:00,26.4,26.4,30.17,SW,225,0.0,1.0,100,0.00,BKN,,0.00,WeatherDisplay:10.37,2014-01-31 03:58:00,
2014-01-30 22:59:00,26.4,26.4,30.17,SW,225,0.9,2.0,100,0.00,BKN,,0.00,WeatherDisplay:10.37,2014-01-31 03:59:00,
2014-01-30 23:00:00,26.3,26.3,30.17,SW,225,0.2,2.3,100,0.00,BKN,,0.00,WeatherDisplay:10.37,2014-01-31 04:00:00,
2014-01-30 23:01:00,26.3,26.3,30.17,SW,225,0.0,0.0,100,0.00,SCT,,0.00,WeatherDisplay:10.37,2014-01-31 04:01:00,
2014-01-30 23:02:00,26.3,26.3,30.17,SW,225,0.0,0.0,100,0.00,SCT,,0.00,WeatherDisplay:10.37,2014-01-31 04:02:00,
2014-01-30 23:04:00,26.3,26.3,30.17,SW,225,0.0,0.0,100,0.00,SCT,,0.00,WeatherDisplay:10.37,2014-01-31 04:04:00,
2014-01-30 23:05:00,26.4,26.4,30.17,SW,225,0.0,0.0,100,0.00,SCT,,0.00,WeatherDisplay:10.37,2014-01-31 04:05:00,
2014-01-30 23:06:00,26.3,26.3,30.17,SW,225,0.0,0.0,100,0.00,SCT,,0.00,WeatherDisplay:10.37,2014-01-31 04:06:00,
2014-01-30 23:07:00,26.3,26.3,30.17,SW,225,0.0,0.0,100,0.00,SCT,,0.00,WeatherDisplay:10.37,2014-01-31 04:07:00,
2014-01-30 23:09:00,26.3,26.3,30.17,SW,225,0.0,0.0,100,0.00,SCT,,0.00,WeatherDisplay:10.37,2014-01-31 04:09:00,
2014-01-30 23:11:00,26.2,26.2,30.17,SW,225,0.0,0.0,100,0.00,SCT,,0.00,WeatherDisplay:10.37,2014-01-31 04:11:00,
2014-01-30 23:12:00,26.1,26.1,30.17,SW,225,0.0,0.0,100,0.00,SCT,,0.00,WeatherDisplay:10.37,2014-01-31 04:12:00,
2014-01-30 23:14:00,26.0,26.0,30.17,SW,225,0.0,0.0,100,0.00,SCT,,0.00,WeatherDisplay:10.37,2014-01-31 04:14:00,
2014-01-30 23:16:00,25.9,25.9,30.17,SW,225,0.0,0.0,100,0.00,SCT,,0.00,WeatherDisplay:10.37,2014-01-31 04:16:00,
2014-01-30 23:17:00,25.8,25.8,30.17,SW,225,0.0,0.0,100,0.00,SCT,,0.00,WeatherDisplay:10.37,2014-01-31 04:17:00,
2014-01-30 23:20:00,25.8,25.8,30.17,SW,224,0.0,0.0,100,0.00,SCT,,0.00,WeatherDisplay:10.37,2014-01-31 04:20:00,
2014-01-30 23:21:00,25.7,25.7,30.17,SW,225,0.0,0.0,100,0.00,SCT,,0.00,WeatherDisplay:10.37,2014-01-31 04:21:00,
2014-01-30 23:22:00,25.6,25.6,30.17,SW,225,0.0,0.0,100,0.00,SCT,,0.00,WeatherDisplay:10.37,2014-01-31 04:22:00,
2014-01-30 23:23:00,25.5,25.5,30.17,SW,225,0.0,0.0,100,0.00,SCT,,0.00,WeatherDisplay:10.37,2014-01-31 04:23:00,
2014-01-30 23:25:00,25.5,25.5,30.17,SW,225,0.0,0.0,100,0.00,SCT,,0.00,WeatherDisplay:10.37,2014-01-31 04:25:00,
2014-01-30 23:26:00,25.5,25.5,30.17,SW,225,0.0,0.0,100,0.00,SCT,,0.00,WeatherDisplay:10.37,2014-01-31 04:26:00,
2014-01-30 23:27:00,25.6,25.6,30.16,SW,225,0.0,0.0,100,0.00,SCT,,0.00,WeatherDisplay:10.37,2014-01-31 04:27:00,
2014-01-30 23:28:00,25.5,25.5,30.17,SW,225,0.0,0.0,100,0.00,SCT,,0.00,WeatherDisplay:10.37,2014-01-31 04:28:00,
2014-01-30 23:30:00,25.4,25.4,30.16,SW,225,0.0,0.0,100,0.00,SCT,,0.00,WeatherDisplay:10.37,2014-01-31 04:30:00,
2014-01-30 23:31:00,25.4,25.4,30.16,SW,225,0.0,0.0,100,0.00,SCT,,0.00,WeatherDisplay:10.37,2014-01-31 04:31:00,
2014-01-30 23:32:00,25.4,25.4,30.17,SW,225,0.0,0.0,100,0.00,SCT,,0.00,WeatherDisplay:10.37,2014-01-31 04:32:00,
2014-01-30 23:33:00,25.3,25.3,30.16,SW,225,0.0,0.0,100,0.00,SCT,,0.00,WeatherDisplay:10.37,2014-01-31 04:33:00,
2014-01-30 23:35:00,25.2,25.2,30.17,SW,225,1.3,2.3,100,0.00,SCT,,0.00,WeatherDisplay:10.37,2014-01-31 04:35:00,
2014-01-30 23:36:00,25.1,25.1,30.17,SW,225,0.0,2.3,100,0.00,SCT,,0.00,WeatherDisplay:10.37,2014-01-31 04:36:00,
2014-01-30 23:37:00,25.1,25.1,30.17,SW,225,0.0,0.0,100,0.00,SCT,,0.00,WeatherDisplay:10.37,2014-01-31 04:37:00,
2014-01-30 23:38:00,25.1,25.1,30.17,SW,225,0.0,0.0,100,0.00,SCT,,0.00,WeatherDisplay:10.37,2014-01-31 04:38:00,
2014-01-30 23:39:00,25.1,25.1,30.17,SW,224,0.0,0.0,100,0.00,SCT,,0.00,WeatherDisplay:10.37,2014-01-31 04:39:00,
2014-01-30 23:40:00,25.1,25.1,30.17,SW,225,0.0,0.0,100,0.00,SCT,,0.00,WeatherDisplay:10.37,2014-01-31 04:40:00,
2014-01-30 23:41:00,24.8,24.8,30.17,SW,225,0.0,0.0,100,0.00,SCT,,0.00,WeatherDisplay:10.37,2014-01-31 04:41:00,
2014-01-30 23:43:00,24.8,24.8,30.17,SW,225,0.0,0.0,100,0.00,SCT,,0.00,WeatherDisplay:10.37,2014-01-31 04:43:00,
2014-01-30 23:44:00,24.8,24.8,30.16,SW,225,0.0,0.0,100,0.00,SCT,,0.00,WeatherDisplay:10.37,2014-01-31 04:44:00,
2014-01-30 23:45:00,24.8,24.8,30.16,SW,225,0.0,0.0,100,0.00,SCT,,0.00,WeatherDisplay:10.37,2014-01-31 04:45:00,
2014-01-30 23:47:00,24.8,24.8,30.16,SW,225,0.0,0.0,100,0.00,SCT,,0.00,WeatherDisplay:10.37,2014-01-31 04:47:00,
2014-01-30 23:48:00,24.7,24.7,30.16,SW,225,0.0,0.0,100,0.00,SCT,,0.00,WeatherDisplay:10.37,2014-01-31 04:48:00,
2014-01-30 23:49:00,24.8,24.8,30.16,SW,225,0.0,0.0,100,0.00,SCT,,0.00,WeatherDisplay:10.37,2014-01-31 04:49:00,
2014-01-30 23:51:00,24.8,24.8,30.16,SW,224,0.0,0.0,100,0.00,SCT,,0.00,WeatherDisplay:10.37,2014-01-31 04:51:00,
2014-01-30 23:52:00,24.7,24.7,30.16,SW,225,0.0,0.0,100,0.00,SCT,,0.00,WeatherDisplay:10.37,2014-01-31 04:52:00,
2014-01-30 23:53:00,24.8,24.8,30.16,SW,225,0.0,0.0,100,0.00,SCT,,0.00,WeatherDisplay:10.37,2014-01-31 04:53:00,
2014-01-30 23:54:00,24.8,24.8,30.16,SW,225,0.0,0.0,100,0.00,SCT,,0.00,WeatherDisplay:10.37,2014-01-31 04:54:00,
2014-01-30 23:56:00,24.6,24.6,30.16,SW,225,0.0,0.0,100,0.00,SCT,,0.00,WeatherDisplay:10.37,2014-01-31 04:56:00,
2014-01-30 23:57:00,24.6,24.6,30.16,SW,225,0.0,0.0,100,0.00,SCT,,0.00,WeatherDisplay:10.37,2014-01-31 04:57:00,
2014-01-30 23:58:00,24.6,24.6,30.16,SW,225,0.0,0.0,100,0.00,SCT,,0.00,WeatherDisplay:10.37,2014-01-31 04:58:00,
2014-01-30 23:59:00,24.6,24.6,30.16,SW,225,0.0,0.0,100,0.00,SCT,,0.00,WeatherDisplay:10.37,2014-01-31 04:59:00,